<?xml version="1.0" encoding="UTF-8" standalone="no" ?>
<gpx xmlns="http://www.topografix.com/GPX/1/1" xmlns:xsi="http://www.w3.org/2001/XMLSchema-instance" xsi:schemaLocation="http://www.topografix.com/GPX/1/1 http://www.topografix.com/GPX/1/1/gpx.xsd" version="1.1" creator="VisuGPX - https://www.visugpx.com">
  <metadata>
    <name>le long du canal: Bellegarde</name>
    <desc><![CDATA[le long du canal: Bellegarde
]]></desc>
  </metadata>
  <trk>
    <name><![CDATA[BELLEGARDE 16:58:59]]></name>
    <trkseg>
      <trkpt lat="43.75727" lon="4.50478">
        <ele>13.6</ele>
        <time>2015-01-26T12:44:00Z</time>
      </trkpt>
      <trkpt lat="43.75712" lon="4.50495">
        <ele>27.53</ele>
        <time>2015-01-26T12:44:06Z</time>
      </trkpt>
      <trkpt lat="43.75699" lon="4.50484">
        <ele>29.94</ele>
        <time>2015-01-26T12:54:50Z</time>
      </trkpt>
      <trkpt lat="43.75697" lon="4.50484">
        <ele>27.53</ele>
        <time>2015-01-26T12:54:53Z</time>
      </trkpt>
      <trkpt lat="43.75693" lon="4.50469">
        <ele>28.02</ele>
        <time>2015-01-26T12:55:10Z</time>
      </trkpt>
      <trkpt lat="43.75693" lon="4.50452">
        <ele>25.61</ele>
        <time>2015-01-26T12:55:23Z</time>
      </trkpt>
      <trkpt lat="43.75691" lon="4.50431">
        <ele>25.61</ele>
        <time>2015-01-26T12:55:38Z</time>
      </trkpt>
      <trkpt lat="43.75688" lon="4.50411">
        <ele>23.69</ele>
        <time>2015-01-26T12:55:51Z</time>
      </trkpt>
      <trkpt lat="43.75686" lon="4.504">
        <ele>22.25</ele>
        <time>2015-01-26T12:55:57Z</time>
      </trkpt>
      <trkpt lat="43.75689" lon="4.50379">
        <ele>21.77</ele>
        <time>2015-01-26T12:56:12Z</time>
      </trkpt>
      <trkpt lat="43.75692" lon="4.50359">
        <ele>19.84</ele>
        <time>2015-01-26T12:56:26Z</time>
      </trkpt>
      <trkpt lat="43.75697" lon="4.50337">
        <ele>23.21</ele>
        <time>2015-01-26T12:56:39Z</time>
      </trkpt>
      <trkpt lat="43.757" lon="4.50326">
        <ele>23.69</ele>
        <time>2015-01-26T12:56:47Z</time>
      </trkpt>
      <trkpt lat="43.75705" lon="4.50306">
        <ele>20.81</ele>
        <time>2015-01-26T12:57:02Z</time>
      </trkpt>
      <trkpt lat="43.75707" lon="4.50287">
        <ele>23.69</ele>
        <time>2015-01-26T12:57:17Z</time>
      </trkpt>
      <trkpt lat="43.75709" lon="4.50282">
        <ele>29.94</ele>
        <time>2015-01-26T12:57:33Z</time>
      </trkpt>
      <trkpt lat="43.75709" lon="4.50279">
        <ele>29.46</ele>
        <time>2015-01-26T12:57:52Z</time>
      </trkpt>
      <trkpt lat="43.75711" lon="4.50272">
        <ele>33.3</ele>
        <time>2015-01-26T12:58:10Z</time>
      </trkpt>
      <trkpt lat="43.75714" lon="4.50262">
        <ele>30.42</ele>
        <time>2015-01-26T12:58:21Z</time>
      </trkpt>
      <trkpt lat="43.75717" lon="4.50249">
        <ele>26.09</ele>
        <time>2015-01-26T12:58:32Z</time>
      </trkpt>
      <trkpt lat="43.7572" lon="4.50232">
        <ele>20.32</ele>
        <time>2015-01-26T12:58:47Z</time>
      </trkpt>
      <trkpt lat="43.75725" lon="4.50216">
        <ele>21.77</ele>
        <time>2015-01-26T12:58:58Z</time>
      </trkpt>
      <trkpt lat="43.75728" lon="4.50198">
        <ele>23.21</ele>
        <time>2015-01-26T12:59:09Z</time>
      </trkpt>
      <trkpt lat="43.7573" lon="4.50189">
        <ele>23.21</ele>
        <time>2015-01-26T12:59:15Z</time>
      </trkpt>
      <trkpt lat="43.75736" lon="4.50172">
        <ele>23.69</ele>
        <time>2015-01-26T12:59:27Z</time>
      </trkpt>
      <trkpt lat="43.75738" lon="4.50166">
        <ele>23.69</ele>
        <time>2015-01-26T12:59:31Z</time>
      </trkpt>
      <trkpt lat="43.75747" lon="4.50148">
        <ele>21.29</ele>
        <time>2015-01-26T12:59:46Z</time>
      </trkpt>
      <trkpt lat="43.75753" lon="4.50131">
        <ele>18.4</ele>
        <time>2015-01-26T13:00:00Z</time>
      </trkpt>
      <trkpt lat="43.75759" lon="4.50112">
        <ele>18.4</ele>
        <time>2015-01-26T13:00:13Z</time>
      </trkpt>
      <trkpt lat="43.75764" lon="4.50092">
        <ele>19.36</ele>
        <time>2015-01-26T13:00:26Z</time>
      </trkpt>
      <trkpt lat="43.75765" lon="4.50078">
        <ele>20.32</ele>
        <time>2015-01-26T13:00:34Z</time>
      </trkpt>
      <trkpt lat="43.75766" lon="4.50057">
        <ele>23.21</ele>
        <time>2015-01-26T13:00:46Z</time>
      </trkpt>
      <trkpt lat="43.75766" lon="4.50034">
        <ele>27.05</ele>
        <time>2015-01-26T13:01:00Z</time>
      </trkpt>
      <trkpt lat="43.75766" lon="4.50033">
        <ele>27.05</ele>
        <time>2015-01-26T13:01:01Z</time>
      </trkpt>
      <trkpt lat="43.75768" lon="4.50017">
        <ele>27.05</ele>
        <time>2015-01-26T13:01:11Z</time>
      </trkpt>
      <trkpt lat="43.75769" lon="4.50013">
        <ele>27.53</ele>
        <time>2015-01-26T13:01:13Z</time>
      </trkpt>
      <trkpt lat="43.75773" lon="4.49995">
        <ele>28.02</ele>
        <time>2015-01-26T13:01:24Z</time>
      </trkpt>
      <trkpt lat="43.75777" lon="4.49974">
        <ele>25.13</ele>
        <time>2015-01-26T13:01:38Z</time>
      </trkpt>
      <trkpt lat="43.7578" lon="4.49959">
        <ele>23.69</ele>
        <time>2015-01-26T13:01:48Z</time>
      </trkpt>
      <trkpt lat="43.75787" lon="4.4994">
        <ele>19.84</ele>
        <time>2015-01-26T13:02:01Z</time>
      </trkpt>
      <trkpt lat="43.75793" lon="4.49927">
        <ele>16</ele>
        <time>2015-01-26T13:02:12Z</time>
      </trkpt>
      <trkpt lat="43.75796" lon="4.49921">
        <ele>14.56</ele>
        <time>2015-01-26T13:02:17Z</time>
      </trkpt>
      <trkpt lat="43.75804" lon="4.49903">
        <ele>9.75</ele>
        <time>2015-01-26T13:02:32Z</time>
      </trkpt>
      <trkpt lat="43.75807" lon="4.49881">
        <ele>12.63</ele>
        <time>2015-01-26T13:02:44Z</time>
      </trkpt>
      <trkpt lat="43.7581" lon="4.49872">
        <ele>15.04</ele>
        <time>2015-01-26T13:02:53Z</time>
      </trkpt>
      <trkpt lat="43.75811" lon="4.49868">
        <ele>15.52</ele>
        <time>2015-01-26T13:02:55Z</time>
      </trkpt>
      <trkpt lat="43.75815" lon="4.49859">
        <ele>16</ele>
        <time>2015-01-26T13:03:02Z</time>
      </trkpt>
      <trkpt lat="43.75816" lon="4.49856">
        <ele>16</ele>
        <time>2015-01-26T13:03:04Z</time>
      </trkpt>
      <trkpt lat="43.7582" lon="4.49839">
        <ele>19.84</ele>
        <time>2015-01-26T13:03:14Z</time>
      </trkpt>
      <trkpt lat="43.75821" lon="4.49833">
        <ele>20.81</ele>
        <time>2015-01-26T13:03:18Z</time>
      </trkpt>
      <trkpt lat="43.75826" lon="4.49812">
        <ele>22.25</ele>
        <time>2015-01-26T13:03:30Z</time>
      </trkpt>
      <trkpt lat="43.75828" lon="4.49802">
        <ele>23.69</ele>
        <time>2015-01-26T13:03:37Z</time>
      </trkpt>
      <trkpt lat="43.75829" lon="4.4978">
        <ele>23.69</ele>
        <time>2015-01-26T13:03:50Z</time>
      </trkpt>
      <trkpt lat="43.75829" lon="4.49759">
        <ele>25.13</ele>
        <time>2015-01-26T13:04:03Z</time>
      </trkpt>
      <trkpt lat="43.7583" lon="4.49744">
        <ele>25.13</ele>
        <time>2015-01-26T13:04:14Z</time>
      </trkpt>
      <trkpt lat="43.7583" lon="4.4974">
        <ele>25.61</ele>
        <time>2015-01-26T13:04:16Z</time>
      </trkpt>
      <trkpt lat="43.75829" lon="4.49717">
        <ele>26.09</ele>
        <time>2015-01-26T13:04:29Z</time>
      </trkpt>
      <trkpt lat="43.75829" lon="4.49698">
        <ele>27.53</ele>
        <time>2015-01-26T13:04:41Z</time>
      </trkpt>
      <trkpt lat="43.75828" lon="4.49677">
        <ele>28.98</ele>
        <time>2015-01-26T13:04:53Z</time>
      </trkpt>
      <trkpt lat="43.75828" lon="4.49658">
        <ele>28.98</ele>
        <time>2015-01-26T13:05:05Z</time>
      </trkpt>
      <trkpt lat="43.75827" lon="4.49639">
        <ele>29.46</ele>
        <time>2015-01-26T13:05:16Z</time>
      </trkpt>
      <trkpt lat="43.75827" lon="4.49619">
        <ele>30.9</ele>
        <time>2015-01-26T13:05:30Z</time>
      </trkpt>
      <trkpt lat="43.75827" lon="4.496">
        <ele>29.46</ele>
        <time>2015-01-26T13:05:41Z</time>
      </trkpt>
      <trkpt lat="43.75827" lon="4.49577">
        <ele>31.38</ele>
        <time>2015-01-26T13:05:54Z</time>
      </trkpt>
      <trkpt lat="43.75827" lon="4.4956">
        <ele>31.86</ele>
        <time>2015-01-26T13:06:05Z</time>
      </trkpt>
      <trkpt lat="43.75827" lon="4.49541">
        <ele>32.34</ele>
        <time>2015-01-26T13:06:16Z</time>
      </trkpt>
      <trkpt lat="43.75826" lon="4.49524">
        <ele>31.86</ele>
        <time>2015-01-26T13:06:27Z</time>
      </trkpt>
      <trkpt lat="43.75824" lon="4.49501">
        <ele>31.38</ele>
        <time>2015-01-26T13:06:41Z</time>
      </trkpt>
      <trkpt lat="43.75825" lon="4.49478">
        <ele>33.78</ele>
        <time>2015-01-26T13:06:56Z</time>
      </trkpt>
      <trkpt lat="43.75826" lon="4.49458">
        <ele>34.26</ele>
        <time>2015-01-26T13:07:09Z</time>
      </trkpt>
      <trkpt lat="43.75825" lon="4.49434">
        <ele>32.82</ele>
        <time>2015-01-26T13:07:22Z</time>
      </trkpt>
      <trkpt lat="43.75823" lon="4.49416">
        <ele>30.9</ele>
        <time>2015-01-26T13:07:33Z</time>
      </trkpt>
      <trkpt lat="43.75817" lon="4.49402">
        <ele>32.34</ele>
        <time>2015-01-26T13:07:46Z</time>
      </trkpt>
      <trkpt lat="43.75819" lon="4.49393">
        <ele>32.34</ele>
        <time>2015-01-26T13:07:56Z</time>
      </trkpt>
      <trkpt lat="43.75823" lon="4.49387">
        <ele>31.38</ele>
        <time>2015-01-26T13:08:03Z</time>
      </trkpt>
      <trkpt lat="43.75822" lon="4.4937">
        <ele>33.3</ele>
        <time>2015-01-26T13:08:15Z</time>
      </trkpt>
      <trkpt lat="43.75821" lon="4.49353">
        <ele>34.26</ele>
        <time>2015-01-26T13:08:27Z</time>
      </trkpt>
      <trkpt lat="43.75821" lon="4.49337">
        <ele>34.74</ele>
        <time>2015-01-26T13:08:38Z</time>
      </trkpt>
      <trkpt lat="43.7582" lon="4.49324">
        <ele>34.26</ele>
        <time>2015-01-26T13:08:48Z</time>
      </trkpt>
      <trkpt lat="43.75818" lon="4.49307">
        <ele>33.3</ele>
        <time>2015-01-26T13:08:59Z</time>
      </trkpt>
      <trkpt lat="43.75815" lon="4.49292">
        <ele>32.82</ele>
        <time>2015-01-26T13:09:10Z</time>
      </trkpt>
      <trkpt lat="43.75814" lon="4.49274">
        <ele>33.3</ele>
        <time>2015-01-26T13:09:22Z</time>
      </trkpt>
      <trkpt lat="43.75812" lon="4.49252">
        <ele>33.78</ele>
        <time>2015-01-26T13:09:36Z</time>
      </trkpt>
      <trkpt lat="43.75809" lon="4.49234">
        <ele>33.3</ele>
        <time>2015-01-26T13:09:47Z</time>
      </trkpt>
      <trkpt lat="43.75806" lon="4.49217">
        <ele>34.26</ele>
        <time>2015-01-26T13:09:58Z</time>
      </trkpt>
      <trkpt lat="43.75804" lon="4.49197">
        <ele>33.78</ele>
        <time>2015-01-26T13:10:12Z</time>
      </trkpt>
      <trkpt lat="43.75801" lon="4.49176">
        <ele>31.38</ele>
        <time>2015-01-26T13:10:26Z</time>
      </trkpt>
      <trkpt lat="43.75799" lon="4.4916">
        <ele>31.38</ele>
        <time>2015-01-26T13:10:38Z</time>
      </trkpt>
      <trkpt lat="43.75796" lon="4.49139">
        <ele>30.42</ele>
        <time>2015-01-26T13:10:51Z</time>
      </trkpt>
      <trkpt lat="43.75794" lon="4.49121">
        <ele>30.42</ele>
        <time>2015-01-26T13:11:02Z</time>
      </trkpt>
      <trkpt lat="43.75793" lon="4.49106">
        <ele>32.82</ele>
        <time>2015-01-26T13:11:11Z</time>
      </trkpt>
      <trkpt lat="43.75789" lon="4.49085">
        <ele>31.86</ele>
        <time>2015-01-26T13:11:23Z</time>
      </trkpt>
      <trkpt lat="43.75787" lon="4.49068">
        <ele>29.46</ele>
        <time>2015-01-26T13:11:34Z</time>
      </trkpt>
      <trkpt lat="43.75785" lon="4.49043">
        <ele>30.9</ele>
        <time>2015-01-26T13:11:48Z</time>
      </trkpt>
      <trkpt lat="43.75784" lon="4.49023">
        <ele>29.94</ele>
        <time>2015-01-26T13:12:01Z</time>
      </trkpt>
      <trkpt lat="43.75781" lon="4.49001">
        <ele>33.3</ele>
        <time>2015-01-26T13:12:15Z</time>
      </trkpt>
      <trkpt lat="43.7578" lon="4.48982">
        <ele>37.15</ele>
        <time>2015-01-26T13:12:28Z</time>
      </trkpt>
      <trkpt lat="43.75778" lon="4.48972">
        <ele>40.03</ele>
        <time>2015-01-26T13:12:35Z</time>
      </trkpt>
      <trkpt lat="43.75776" lon="4.48947">
        <ele>42.92</ele>
        <time>2015-01-26T13:12:50Z</time>
      </trkpt>
      <trkpt lat="43.75774" lon="4.48928">
        <ele>43.4</ele>
        <time>2015-01-26T13:13:02Z</time>
      </trkpt>
      <trkpt lat="43.75772" lon="4.4891">
        <ele>44.36</ele>
        <time>2015-01-26T13:13:14Z</time>
      </trkpt>
      <trkpt lat="43.75768" lon="4.48891">
        <ele>41.47</ele>
        <time>2015-01-26T13:13:27Z</time>
      </trkpt>
      <trkpt lat="43.75762" lon="4.48871">
        <ele>38.59</ele>
        <time>2015-01-26T13:13:39Z</time>
      </trkpt>
      <trkpt lat="43.75758" lon="4.48858">
        <ele>37.15</ele>
        <time>2015-01-26T13:13:50Z</time>
      </trkpt>
      <trkpt lat="43.75751" lon="4.48835">
        <ele>38.11</ele>
        <time>2015-01-26T13:14:06Z</time>
      </trkpt>
      <trkpt lat="43.75745" lon="4.48817">
        <ele>37.63</ele>
        <time>2015-01-26T13:14:19Z</time>
      </trkpt>
      <trkpt lat="43.7574" lon="4.48798">
        <ele>37.63</ele>
        <time>2015-01-26T13:14:31Z</time>
      </trkpt>
      <trkpt lat="43.75733" lon="4.48778">
        <ele>40.99</ele>
        <time>2015-01-26T13:14:44Z</time>
      </trkpt>
      <trkpt lat="43.75726" lon="4.48758">
        <ele>41.47</ele>
        <time>2015-01-26T13:14:59Z</time>
      </trkpt>
      <trkpt lat="43.75723" lon="4.48741">
        <ele>43.4</ele>
        <time>2015-01-26T13:15:10Z</time>
      </trkpt>
      <trkpt lat="43.75719" lon="4.48727">
        <ele>47.72</ele>
        <time>2015-01-26T13:15:21Z</time>
      </trkpt>
      <trkpt lat="43.7571" lon="4.48711">
        <ele>48.2</ele>
        <time>2015-01-26T13:15:34Z</time>
      </trkpt>
      <trkpt lat="43.75708" lon="4.487">
        <ele>48.2</ele>
        <time>2015-01-26T13:15:48Z</time>
      </trkpt>
      <trkpt lat="43.75704" lon="4.48696">
        <ele>47.24</ele>
        <time>2015-01-26T13:16:02Z</time>
      </trkpt>
      <trkpt lat="43.75702" lon="4.48686">
        <ele>46.76</ele>
        <time>2015-01-26T13:16:19Z</time>
      </trkpt>
      <trkpt lat="43.75697" lon="4.4867">
        <ele>47.72</ele>
        <time>2015-01-26T13:16:35Z</time>
      </trkpt>
      <trkpt lat="43.75693" lon="4.48659">
        <ele>48.2</ele>
        <time>2015-01-26T13:16:44Z</time>
      </trkpt>
      <trkpt lat="43.75689" lon="4.48644">
        <ele>50.13</ele>
        <time>2015-01-26T13:16:55Z</time>
      </trkpt>
      <trkpt lat="43.75689" lon="4.48624">
        <ele>52.53</ele>
        <time>2015-01-26T13:17:09Z</time>
      </trkpt>
      <trkpt lat="43.75688" lon="4.48603">
        <ele>52.05</ele>
        <time>2015-01-26T13:17:23Z</time>
      </trkpt>
      <trkpt lat="43.75684" lon="4.48584">
        <ele>48.68</ele>
        <time>2015-01-26T13:17:35Z</time>
      </trkpt>
      <trkpt lat="43.75683" lon="4.48579">
        <ele>47.72</ele>
        <time>2015-01-26T13:17:38Z</time>
      </trkpt>
      <trkpt lat="43.75676" lon="4.48559">
        <ele>45.8</ele>
        <time>2015-01-26T13:17:51Z</time>
      </trkpt>
      <trkpt lat="43.75667" lon="4.48541">
        <ele>44.84</ele>
        <time>2015-01-26T13:18:04Z</time>
      </trkpt>
      <trkpt lat="43.75659" lon="4.48519">
        <ele>42.92</ele>
        <time>2015-01-26T13:18:19Z</time>
      </trkpt>
      <trkpt lat="43.75653" lon="4.48505">
        <ele>41.95</ele>
        <time>2015-01-26T13:18:30Z</time>
      </trkpt>
      <trkpt lat="43.75647" lon="4.48484">
        <ele>41.95</ele>
        <time>2015-01-26T13:18:44Z</time>
      </trkpt>
      <trkpt lat="43.75642" lon="4.48464">
        <ele>40.51</ele>
        <time>2015-01-26T13:18:58Z</time>
      </trkpt>
      <trkpt lat="43.75632" lon="4.48447">
        <ele>41.47</ele>
        <time>2015-01-26T13:19:11Z</time>
      </trkpt>
      <trkpt lat="43.75618" lon="4.48433">
        <ele>37.63</ele>
        <time>2015-01-26T13:19:24Z</time>
      </trkpt>
      <trkpt lat="43.7561" lon="4.48421">
        <ele>36.67</ele>
        <time>2015-01-26T13:19:35Z</time>
      </trkpt>
      <trkpt lat="43.75609" lon="4.48416">
        <ele>36.19</ele>
        <time>2015-01-26T13:19:39Z</time>
      </trkpt>
      <trkpt lat="43.75596" lon="4.48394">
        <ele>34.74</ele>
        <time>2015-01-26T13:19:54Z</time>
      </trkpt>
      <trkpt lat="43.7559" lon="4.48386">
        <ele>34.74</ele>
        <time>2015-01-26T13:20:02Z</time>
      </trkpt>
      <trkpt lat="43.75576" lon="4.48368">
        <ele>32.82</ele>
        <time>2015-01-26T13:20:17Z</time>
      </trkpt>
      <trkpt lat="43.75562" lon="4.48354">
        <ele>32.34</ele>
        <time>2015-01-26T13:20:31Z</time>
      </trkpt>
      <trkpt lat="43.75553" lon="4.48346">
        <ele>32.34</ele>
        <time>2015-01-26T13:20:41Z</time>
      </trkpt>
      <trkpt lat="43.75538" lon="4.48331">
        <ele>33.3</ele>
        <time>2015-01-26T13:20:56Z</time>
      </trkpt>
      <trkpt lat="43.75531" lon="4.48314">
        <ele>31.86</ele>
        <time>2015-01-26T13:21:11Z</time>
      </trkpt>
      <trkpt lat="43.75526" lon="4.48299">
        <ele>31.86</ele>
        <time>2015-01-26T13:21:22Z</time>
      </trkpt>
      <trkpt lat="43.75524" lon="4.48279">
        <ele>38.59</ele>
        <time>2015-01-26T13:21:36Z</time>
      </trkpt>
      <trkpt lat="43.75521" lon="4.48259">
        <ele>41.95</ele>
        <time>2015-01-26T13:21:48Z</time>
      </trkpt>
      <trkpt lat="43.75517" lon="4.48237">
        <ele>44.36</ele>
        <time>2015-01-26T13:22:00Z</time>
      </trkpt>
      <trkpt lat="43.7551" lon="4.48213">
        <ele>47.24</ele>
        <time>2015-01-26T13:22:15Z</time>
      </trkpt>
      <trkpt lat="43.75504" lon="4.48192">
        <ele>50.13</ele>
        <time>2015-01-26T13:22:29Z</time>
      </trkpt>
      <trkpt lat="43.75499" lon="4.48186">
        <ele>50.13</ele>
        <time>2015-01-26T13:22:35Z</time>
      </trkpt>
      <trkpt lat="43.75481" lon="4.48184">
        <ele>50.13</ele>
        <time>2015-01-26T13:22:50Z</time>
      </trkpt>
      <trkpt lat="43.75467" lon="4.48187">
        <ele>50.61</ele>
        <time>2015-01-26T13:23:02Z</time>
      </trkpt>
      <trkpt lat="43.7545" lon="4.48189">
        <ele>53.01</ele>
        <time>2015-01-26T13:23:17Z</time>
      </trkpt>
      <trkpt lat="43.75435" lon="4.48191">
        <ele>52.05</ele>
        <time>2015-01-26T13:23:31Z</time>
      </trkpt>
      <trkpt lat="43.75419" lon="4.48191">
        <ele>51.57</ele>
        <time>2015-01-26T13:23:46Z</time>
      </trkpt>
      <trkpt lat="43.75415" lon="4.48187">
        <ele>52.05</ele>
        <time>2015-01-26T13:23:51Z</time>
      </trkpt>
      <trkpt lat="43.75416" lon="4.4818">
        <ele>53.01</ele>
        <time>2015-01-26T13:23:56Z</time>
      </trkpt>
      <trkpt lat="43.75422" lon="4.48161">
        <ele>53.01</ele>
        <time>2015-01-26T13:24:09Z</time>
      </trkpt>
      <trkpt lat="43.75426" lon="4.48144">
        <ele>53.49</ele>
        <time>2015-01-26T13:24:19Z</time>
      </trkpt>
      <trkpt lat="43.75431" lon="4.48121">
        <ele>53.97</ele>
        <time>2015-01-26T13:24:34Z</time>
      </trkpt>
      <trkpt lat="43.75434" lon="4.48103">
        <ele>53.97</ele>
        <time>2015-01-26T13:24:45Z</time>
      </trkpt>
      <trkpt lat="43.75435" lon="4.48099">
        <ele>53.97</ele>
        <time>2015-01-26T13:24:48Z</time>
      </trkpt>
      <trkpt lat="43.7544" lon="4.48075">
        <ele>53.97</ele>
        <time>2015-01-26T13:25:03Z</time>
      </trkpt>
      <trkpt lat="43.75445" lon="4.4805">
        <ele>53.01</ele>
        <time>2015-01-26T13:25:18Z</time>
      </trkpt>
      <trkpt lat="43.75447" lon="4.48044">
        <ele>52.53</ele>
        <time>2015-01-26T13:25:22Z</time>
      </trkpt>
      <trkpt lat="43.7545" lon="4.48024">
        <ele>51.57</ele>
        <time>2015-01-26T13:25:34Z</time>
      </trkpt>
      <trkpt lat="43.75451" lon="4.48022">
        <ele>51.57</ele>
        <time>2015-01-26T13:25:36Z</time>
      </trkpt>
      <trkpt lat="43.75451" lon="4.48004">
        <ele>49.16</ele>
        <time>2015-01-26T13:25:49Z</time>
      </trkpt>
      <trkpt lat="43.7545" lon="4.47997">
        <ele>48.68</ele>
        <time>2015-01-26T13:25:53Z</time>
      </trkpt>
      <trkpt lat="43.7544" lon="4.47993">
        <ele>50.61</ele>
        <time>2015-01-26T13:26:06Z</time>
      </trkpt>
      <trkpt lat="43.75439" lon="4.47998">
        <ele>51.57</ele>
        <time>2015-01-26T13:26:19Z</time>
      </trkpt>
      <trkpt lat="43.75439" lon="4.48002">
        <ele>50.61</ele>
        <time>2015-01-26T13:26:23Z</time>
      </trkpt>
      <trkpt lat="43.75439" lon="4.48014">
        <ele>52.05</ele>
        <time>2015-01-26T13:26:38Z</time>
      </trkpt>
      <trkpt lat="43.75438" lon="4.48011">
        <ele>53.01</ele>
        <time>2015-01-26T13:27:00Z</time>
      </trkpt>
      <trkpt lat="43.75435" lon="4.48008">
        <ele>53.01</ele>
        <time>2015-01-26T13:27:16Z</time>
      </trkpt>
      <trkpt lat="43.75439" lon="4.48008">
        <ele>53.01</ele>
        <time>2015-01-26T13:27:41Z</time>
      </trkpt>
      <trkpt lat="43.75441" lon="4.48013">
        <ele>53.49</ele>
        <time>2015-01-26T13:28:01Z</time>
      </trkpt>
      <trkpt lat="43.75441" lon="4.4801">
        <ele>53.97</ele>
        <time>2015-01-26T13:28:18Z</time>
      </trkpt>
      <trkpt lat="43.75433" lon="4.48011">
        <ele>53.97</ele>
        <time>2015-01-26T13:28:32Z</time>
      </trkpt>
      <trkpt lat="43.75431" lon="4.48016">
        <ele>53.49</ele>
        <time>2015-01-26T13:28:36Z</time>
      </trkpt>
      <trkpt lat="43.7543" lon="4.48022">
        <ele>53.97</ele>
        <time>2015-01-26T13:28:40Z</time>
      </trkpt>
      <trkpt lat="43.75425" lon="4.48043">
        <ele>55.41</ele>
        <time>2015-01-26T13:28:54Z</time>
      </trkpt>
      <trkpt lat="43.75422" lon="4.48062">
        <ele>55.89</ele>
        <time>2015-01-26T13:29:07Z</time>
      </trkpt>
      <trkpt lat="43.75417" lon="4.48089">
        <ele>56.37</ele>
        <time>2015-01-26T13:29:24Z</time>
      </trkpt>
      <trkpt lat="43.75412" lon="4.48114">
        <ele>56.37</ele>
        <time>2015-01-26T13:29:40Z</time>
      </trkpt>
      <trkpt lat="43.75407" lon="4.48139">
        <ele>56.86</ele>
        <time>2015-01-26T13:29:56Z</time>
      </trkpt>
      <trkpt lat="43.75402" lon="4.48163">
        <ele>56.37</ele>
        <time>2015-01-26T13:30:11Z</time>
      </trkpt>
      <trkpt lat="43.75397" lon="4.48189">
        <ele>56.37</ele>
        <time>2015-01-26T13:30:27Z</time>
      </trkpt>
      <trkpt lat="43.75395" lon="4.48193">
        <ele>56.86</ele>
        <time>2015-01-26T13:30:30Z</time>
      </trkpt>
      <trkpt lat="43.75375" lon="4.48194">
        <ele>53.97</ele>
        <time>2015-01-26T13:30:47Z</time>
      </trkpt>
      <trkpt lat="43.75362" lon="4.48194">
        <ele>52.05</ele>
        <time>2015-01-26T13:30:59Z</time>
      </trkpt>
      <trkpt lat="43.75356" lon="4.48194">
        <ele>51.09</ele>
        <time>2015-01-26T13:31:04Z</time>
      </trkpt>
      <trkpt lat="43.75339" lon="4.48197">
        <ele>49.65</ele>
        <time>2015-01-26T13:31:20Z</time>
      </trkpt>
      <trkpt lat="43.75321" lon="4.48199">
        <ele>51.09</ele>
        <time>2015-01-26T13:31:34Z</time>
      </trkpt>
      <trkpt lat="43.75306" lon="4.48199">
        <ele>50.61</ele>
        <time>2015-01-26T13:31:47Z</time>
      </trkpt>
      <trkpt lat="43.75289" lon="4.482">
        <ele>51.57</ele>
        <time>2015-01-26T13:32:01Z</time>
      </trkpt>
      <trkpt lat="43.75274" lon="4.48201">
        <ele>51.09</ele>
        <time>2015-01-26T13:32:13Z</time>
      </trkpt>
      <trkpt lat="43.7526" lon="4.48202">
        <ele>51.09</ele>
        <time>2015-01-26T13:32:25Z</time>
      </trkpt>
      <trkpt lat="43.75244" lon="4.48202">
        <ele>51.09</ele>
        <time>2015-01-26T13:32:38Z</time>
      </trkpt>
      <trkpt lat="43.75228" lon="4.48203">
        <ele>51.09</ele>
        <time>2015-01-26T13:32:51Z</time>
      </trkpt>
      <trkpt lat="43.75211" lon="4.48205">
        <ele>51.09</ele>
        <time>2015-01-26T13:33:05Z</time>
      </trkpt>
      <trkpt lat="43.75195" lon="4.48206">
        <ele>49.65</ele>
        <time>2015-01-26T13:33:20Z</time>
      </trkpt>
      <trkpt lat="43.75176" lon="4.48207">
        <ele>50.61</ele>
        <time>2015-01-26T13:33:36Z</time>
      </trkpt>
      <trkpt lat="43.7516" lon="4.48209">
        <ele>51.09</ele>
        <time>2015-01-26T13:33:49Z</time>
      </trkpt>
      <trkpt lat="43.75144" lon="4.4821">
        <ele>50.13</ele>
        <time>2015-01-26T13:34:02Z</time>
      </trkpt>
      <trkpt lat="43.75128" lon="4.48212">
        <ele>48.2</ele>
        <time>2015-01-26T13:34:15Z</time>
      </trkpt>
      <trkpt lat="43.75111" lon="4.48214">
        <ele>48.2</ele>
        <time>2015-01-26T13:34:30Z</time>
      </trkpt>
      <trkpt lat="43.75092" lon="4.48216">
        <ele>48.2</ele>
        <time>2015-01-26T13:34:45Z</time>
      </trkpt>
      <trkpt lat="43.75076" lon="4.48217">
        <ele>49.65</ele>
        <time>2015-01-26T13:34:59Z</time>
      </trkpt>
      <trkpt lat="43.75073" lon="4.48218">
        <ele>49.65</ele>
        <time>2015-01-26T13:35:01Z</time>
      </trkpt>
      <trkpt lat="43.75053" lon="4.48218">
        <ele>51.57</ele>
        <time>2015-01-26T13:35:17Z</time>
      </trkpt>
      <trkpt lat="43.75035" lon="4.48218">
        <ele>52.53</ele>
        <time>2015-01-26T13:35:32Z</time>
      </trkpt>
      <trkpt lat="43.75018" lon="4.4822">
        <ele>53.97</ele>
        <time>2015-01-26T13:35:46Z</time>
      </trkpt>
      <trkpt lat="43.75002" lon="4.48221">
        <ele>54.93</ele>
        <time>2015-01-26T13:36:00Z</time>
      </trkpt>
      <trkpt lat="43.74985" lon="4.48223">
        <ele>54.93</ele>
        <time>2015-01-26T13:36:15Z</time>
      </trkpt>
      <trkpt lat="43.74967" lon="4.48223">
        <ele>55.41</ele>
        <time>2015-01-26T13:36:30Z</time>
      </trkpt>
      <trkpt lat="43.74948" lon="4.48225">
        <ele>55.89</ele>
        <time>2015-01-26T13:36:47Z</time>
      </trkpt>
      <trkpt lat="43.7493" lon="4.48226">
        <ele>56.37</ele>
        <time>2015-01-26T13:37:02Z</time>
      </trkpt>
      <trkpt lat="43.74911" lon="4.48227">
        <ele>57.82</ele>
        <time>2015-01-26T13:37:18Z</time>
      </trkpt>
      <trkpt lat="43.74893" lon="4.48229">
        <ele>56.37</ele>
        <time>2015-01-26T13:37:33Z</time>
      </trkpt>
      <trkpt lat="43.74878" lon="4.4823">
        <ele>53.97</ele>
        <time>2015-01-26T13:37:46Z</time>
      </trkpt>
      <trkpt lat="43.74862" lon="4.48233">
        <ele>52.53</ele>
        <time>2015-01-26T13:38:00Z</time>
      </trkpt>
      <trkpt lat="43.74847" lon="4.48234">
        <ele>53.49</ele>
        <time>2015-01-26T13:38:13Z</time>
      </trkpt>
      <trkpt lat="43.74831" lon="4.48235">
        <ele>54.93</ele>
        <time>2015-01-26T13:38:27Z</time>
      </trkpt>
      <trkpt lat="43.74818" lon="4.48237">
        <ele>55.41</ele>
        <time>2015-01-26T13:38:38Z</time>
      </trkpt>
      <trkpt lat="43.74798" lon="4.48237">
        <ele>58.3</ele>
        <time>2015-01-26T13:38:54Z</time>
      </trkpt>
      <trkpt lat="43.74782" lon="4.48238">
        <ele>59.74</ele>
        <time>2015-01-26T13:39:07Z</time>
      </trkpt>
      <trkpt lat="43.74764" lon="4.48239">
        <ele>60.22</ele>
        <time>2015-01-26T13:39:22Z</time>
      </trkpt>
      <trkpt lat="43.74747" lon="4.48241">
        <ele>60.22</ele>
        <time>2015-01-26T13:39:37Z</time>
      </trkpt>
      <trkpt lat="43.74743" lon="4.48241">
        <ele>59.74</ele>
        <time>2015-01-26T13:39:40Z</time>
      </trkpt>
      <trkpt lat="43.74725" lon="4.48241">
        <ele>58.78</ele>
        <time>2015-01-26T13:39:56Z</time>
      </trkpt>
      <trkpt lat="43.74708" lon="4.48242">
        <ele>60.7</ele>
        <time>2015-01-26T13:40:10Z</time>
      </trkpt>
      <trkpt lat="43.74692" lon="4.48244">
        <ele>63.1</ele>
        <time>2015-01-26T13:40:23Z</time>
      </trkpt>
      <trkpt lat="43.74687" lon="4.48244">
        <ele>63.58</ele>
        <time>2015-01-26T13:40:27Z</time>
      </trkpt>
      <trkpt lat="43.74667" lon="4.48246">
        <ele>64.07</ele>
        <time>2015-01-26T13:40:43Z</time>
      </trkpt>
      <trkpt lat="43.74649" lon="4.48246">
        <ele>65.03</ele>
        <time>2015-01-26T13:40:58Z</time>
      </trkpt>
      <trkpt lat="43.74629" lon="4.48248">
        <ele>64.07</ele>
        <time>2015-01-26T13:41:14Z</time>
      </trkpt>
      <trkpt lat="43.74614" lon="4.48249">
        <ele>64.55</ele>
        <time>2015-01-26T13:41:27Z</time>
      </trkpt>
      <trkpt lat="43.74597" lon="4.48251">
        <ele>64.55</ele>
        <time>2015-01-26T13:41:42Z</time>
      </trkpt>
      <trkpt lat="43.74578" lon="4.48252">
        <ele>65.03</ele>
        <time>2015-01-26T13:41:57Z</time>
      </trkpt>
      <trkpt lat="43.74579" lon="4.48255">
        <ele>65.03</ele>
        <time>2015-01-26T13:42:11Z</time>
      </trkpt>
      <trkpt lat="43.74579" lon="4.48256">
        <ele>66.47</ele>
        <time>2015-01-26T13:42:37Z</time>
      </trkpt>
      <trkpt lat="43.74578" lon="4.48255">
        <ele>66.95</ele>
        <time>2015-01-26T13:43:07Z</time>
      </trkpt>
      <trkpt lat="43.74577" lon="4.48254">
        <ele>67.91</ele>
        <time>2015-01-26T13:43:39Z</time>
      </trkpt>
      <trkpt lat="43.74578" lon="4.48254">
        <ele>67.91</ele>
        <time>2015-01-26T13:44:09Z</time>
      </trkpt>
      <trkpt lat="43.74579" lon="4.48254">
        <ele>67.91</ele>
        <time>2015-01-26T13:44:37Z</time>
      </trkpt>
      <trkpt lat="43.74573" lon="4.48254">
        <ele>67.43</ele>
        <time>2015-01-26T13:45:01Z</time>
      </trkpt>
      <trkpt lat="43.74559" lon="4.48254">
        <ele>65.99</ele>
        <time>2015-01-26T13:45:15Z</time>
      </trkpt>
      <trkpt lat="43.7455" lon="4.48255">
        <ele>65.51</ele>
        <time>2015-01-26T13:45:30Z</time>
      </trkpt>
      <trkpt lat="43.74545" lon="4.4826">
        <ele>65.51</ele>
        <time>2015-01-26T13:45:39Z</time>
      </trkpt>
      <trkpt lat="43.74541" lon="4.4826">
        <ele>65.51</ele>
        <time>2015-01-26T13:45:53Z</time>
      </trkpt>
      <trkpt lat="43.74539" lon="4.4825">
        <ele>66.95</ele>
        <time>2015-01-26T13:46:06Z</time>
      </trkpt>
      <trkpt lat="43.74532" lon="4.48232">
        <ele>69.35</ele>
        <time>2015-01-26T13:46:22Z</time>
      </trkpt>
      <trkpt lat="43.74531" lon="4.48228">
        <ele>69.35</ele>
        <time>2015-01-26T13:46:25Z</time>
      </trkpt>
      <trkpt lat="43.7453" lon="4.48205">
        <ele>70.31</ele>
        <time>2015-01-26T13:46:40Z</time>
      </trkpt>
      <trkpt lat="43.74529" lon="4.48185">
        <ele>71.76</ele>
        <time>2015-01-26T13:46:54Z</time>
      </trkpt>
      <trkpt lat="43.74528" lon="4.48172">
        <ele>71.27</ele>
        <time>2015-01-26T13:47:02Z</time>
      </trkpt>
      <trkpt lat="43.74527" lon="4.48155">
        <ele>71.27</ele>
        <time>2015-01-26T13:47:13Z</time>
      </trkpt>
      <trkpt lat="43.74528" lon="4.48129">
        <ele>71.27</ele>
        <time>2015-01-26T13:47:29Z</time>
      </trkpt>
      <trkpt lat="43.74526" lon="4.48109">
        <ele>70.31</ele>
        <time>2015-01-26T13:47:43Z</time>
      </trkpt>
      <trkpt lat="43.74525" lon="4.48089">
        <ele>64.55</ele>
        <time>2015-01-26T13:47:57Z</time>
      </trkpt>
      <trkpt lat="43.74524" lon="4.48075">
        <ele>56.86</ele>
        <time>2015-01-26T13:48:09Z</time>
      </trkpt>
      <trkpt lat="43.74514" lon="4.48065">
        <ele>58.3</ele>
        <time>2015-01-26T13:48:19Z</time>
      </trkpt>
      <trkpt lat="43.74504" lon="4.48063">
        <ele>59.74</ele>
        <time>2015-01-26T13:48:27Z</time>
      </trkpt>
      <trkpt lat="43.74488" lon="4.48065">
        <ele>59.74</ele>
        <time>2015-01-26T13:48:42Z</time>
      </trkpt>
      <trkpt lat="43.74482" lon="4.48066">
        <ele>59.74</ele>
        <time>2015-01-26T13:48:47Z</time>
      </trkpt>
      <trkpt lat="43.74465" lon="4.48068">
        <ele>59.74</ele>
        <time>2015-01-26T13:49:02Z</time>
      </trkpt>
      <trkpt lat="43.7445" lon="4.48068">
        <ele>60.7</ele>
        <time>2015-01-26T13:49:15Z</time>
      </trkpt>
      <trkpt lat="43.74447" lon="4.48069">
        <ele>61.18</ele>
        <time>2015-01-26T13:49:18Z</time>
      </trkpt>
      <trkpt lat="43.74443" lon="4.48068">
        <ele>63.1</ele>
        <time>2015-01-26T13:49:22Z</time>
      </trkpt>
      <trkpt lat="43.74427" lon="4.48071">
        <ele>64.55</ele>
        <time>2015-01-26T13:49:36Z</time>
      </trkpt>
      <trkpt lat="43.74413" lon="4.48072">
        <ele>65.99</ele>
        <time>2015-01-26T13:49:49Z</time>
      </trkpt>
      <trkpt lat="43.74398" lon="4.48072">
        <ele>67.43</ele>
        <time>2015-01-26T13:50:02Z</time>
      </trkpt>
      <trkpt lat="43.74394" lon="4.48071">
        <ele>67.91</ele>
        <time>2015-01-26T13:50:07Z</time>
      </trkpt>
      <trkpt lat="43.74388" lon="4.48059">
        <ele>66.47</ele>
        <time>2015-01-26T13:50:18Z</time>
      </trkpt>
      <trkpt lat="43.74385" lon="4.48042">
        <ele>62.62</ele>
        <time>2015-01-26T13:50:31Z</time>
      </trkpt>
      <trkpt lat="43.74385" lon="4.4804">
        <ele>62.62</ele>
        <time>2015-01-26T13:50:32Z</time>
      </trkpt>
      <trkpt lat="43.74387" lon="4.4802">
        <ele>62.62</ele>
        <time>2015-01-26T13:50:45Z</time>
      </trkpt>
      <trkpt lat="43.74392" lon="4.48001">
        <ele>64.55</ele>
        <time>2015-01-26T13:50:58Z</time>
      </trkpt>
      <trkpt lat="43.74397" lon="4.47982">
        <ele>67.43</ele>
        <time>2015-01-26T13:51:11Z</time>
      </trkpt>
      <trkpt lat="43.744" lon="4.47973">
        <ele>69.35</ele>
        <time>2015-01-26T13:51:17Z</time>
      </trkpt>
      <trkpt lat="43.744" lon="4.47969">
        <ele>70.31</ele>
        <time>2015-01-26T13:51:20Z</time>
      </trkpt>
      <trkpt lat="43.74401" lon="4.47948">
        <ele>69.83</ele>
        <time>2015-01-26T13:51:33Z</time>
      </trkpt>
      <trkpt lat="43.74397" lon="4.47928">
        <ele>69.35</ele>
        <time>2015-01-26T13:51:45Z</time>
      </trkpt>
      <trkpt lat="43.74393" lon="4.4791">
        <ele>68.39</ele>
        <time>2015-01-26T13:51:57Z</time>
      </trkpt>
      <trkpt lat="43.74393" lon="4.47897">
        <ele>68.39</ele>
        <time>2015-01-26T13:52:06Z</time>
      </trkpt>
      <trkpt lat="43.74396" lon="4.47885">
        <ele>69.35</ele>
        <time>2015-01-26T13:52:13Z</time>
      </trkpt>
      <trkpt lat="43.74399" lon="4.47862">
        <ele>69.83</ele>
        <time>2015-01-26T13:52:28Z</time>
      </trkpt>
      <trkpt lat="43.74399" lon="4.4786">
        <ele>69.35</ele>
        <time>2015-01-26T13:52:29Z</time>
      </trkpt>
      <trkpt lat="43.74398" lon="4.47853">
        <ele>68.87</ele>
        <time>2015-01-26T13:52:33Z</time>
      </trkpt>
      <trkpt lat="43.74396" lon="4.47847">
        <ele>67.91</ele>
        <time>2015-01-26T13:52:37Z</time>
      </trkpt>
      <trkpt lat="43.74393" lon="4.4784">
        <ele>67.43</ele>
        <time>2015-01-26T13:52:42Z</time>
      </trkpt>
      <trkpt lat="43.74385" lon="4.47821">
        <ele>68.87</ele>
        <time>2015-01-26T13:52:55Z</time>
      </trkpt>
      <trkpt lat="43.7438" lon="4.47804">
        <ele>67.91</ele>
        <time>2015-01-26T13:53:06Z</time>
      </trkpt>
      <trkpt lat="43.74378" lon="4.47788">
        <ele>63.1</ele>
        <time>2015-01-26T13:53:18Z</time>
      </trkpt>
      <trkpt lat="43.74378" lon="4.47787">
        <ele>63.1</ele>
        <time>2015-01-26T13:53:19Z</time>
      </trkpt>
      <trkpt lat="43.74385" lon="4.47768">
        <ele>65.51</ele>
        <time>2015-01-26T13:53:32Z</time>
      </trkpt>
      <trkpt lat="43.74396" lon="4.47749">
        <ele>68.39</ele>
        <time>2015-01-26T13:53:47Z</time>
      </trkpt>
      <trkpt lat="43.74413" lon="4.47733">
        <ele>69.83</ele>
        <time>2015-01-26T13:54:02Z</time>
      </trkpt>
      <trkpt lat="43.74429" lon="4.4772">
        <ele>69.83</ele>
        <time>2015-01-26T13:54:19Z</time>
      </trkpt>
      <trkpt lat="43.74433" lon="4.47711">
        <ele>71.27</ele>
        <time>2015-01-26T13:54:34Z</time>
      </trkpt>
      <trkpt lat="43.74434" lon="4.47707">
        <ele>70.79</ele>
        <time>2015-01-26T13:54:48Z</time>
      </trkpt>
      <trkpt lat="43.74433" lon="4.47709">
        <ele>71.27</ele>
        <time>2015-01-26T13:55:07Z</time>
      </trkpt>
      <trkpt lat="43.74432" lon="4.47709">
        <ele>70.79</ele>
        <time>2015-01-26T13:55:23Z</time>
      </trkpt>
      <trkpt lat="43.74431" lon="4.47709">
        <ele>70.31</ele>
        <time>2015-01-26T13:55:43Z</time>
      </trkpt>
      <trkpt lat="43.74431" lon="4.47708">
        <ele>69.35</ele>
        <time>2015-01-26T13:56:04Z</time>
      </trkpt>
      <trkpt lat="43.74431" lon="4.47711">
        <ele>68.39</ele>
        <time>2015-01-26T13:56:25Z</time>
      </trkpt>
      <trkpt lat="43.74431" lon="4.47712">
        <ele>69.35</ele>
        <time>2015-01-26T13:56:39Z</time>
      </trkpt>
      <trkpt lat="43.7443" lon="4.47715">
        <ele>69.83</ele>
        <time>2015-01-26T13:56:53Z</time>
      </trkpt>
      <trkpt lat="43.74431" lon="4.4771">
        <ele>70.31</ele>
        <time>2015-01-26T13:57:10Z</time>
      </trkpt>
      <trkpt lat="43.74433" lon="4.47706">
        <ele>69.83</ele>
        <time>2015-01-26T13:57:25Z</time>
      </trkpt>
      <trkpt lat="43.74434" lon="4.47694">
        <ele>69.83</ele>
        <time>2015-01-26T13:57:42Z</time>
      </trkpt>
      <trkpt lat="43.74438" lon="4.47678">
        <ele>70.79</ele>
        <time>2015-01-26T13:57:56Z</time>
      </trkpt>
      <trkpt lat="43.74439" lon="4.4767">
        <ele>70.79</ele>
        <time>2015-01-26T13:58:03Z</time>
      </trkpt>
      <trkpt lat="43.74442" lon="4.47655">
        <ele>70.31</ele>
        <time>2015-01-26T13:58:17Z</time>
      </trkpt>
      <trkpt lat="43.74438" lon="4.47651">
        <ele>67.43</ele>
        <time>2015-01-26T13:58:32Z</time>
      </trkpt>
      <trkpt lat="43.74434" lon="4.47658">
        <ele>64.07</ele>
        <time>2015-01-26T13:58:48Z</time>
      </trkpt>
      <trkpt lat="43.74428" lon="4.47666">
        <ele>57.82</ele>
        <time>2015-01-26T13:59:03Z</time>
      </trkpt>
      <trkpt lat="43.74422" lon="4.47677">
        <ele>52.05</ele>
        <time>2015-01-26T13:59:17Z</time>
      </trkpt>
      <trkpt lat="43.74416" lon="4.47681">
        <ele>47.24</ele>
        <time>2015-01-26T13:59:30Z</time>
      </trkpt>
      <trkpt lat="43.74407" lon="4.47685">
        <ele>46.76</ele>
        <time>2015-01-26T13:59:45Z</time>
      </trkpt>
      <trkpt lat="43.74398" lon="4.47689">
        <ele>46.28</ele>
        <time>2015-01-26T13:59:58Z</time>
      </trkpt>
      <trkpt lat="43.74382" lon="4.47694">
        <ele>44.36</ele>
        <time>2015-01-26T14:00:15Z</time>
      </trkpt>
      <trkpt lat="43.74374" lon="4.47696">
        <ele>40.03</ele>
        <time>2015-01-26T14:00:26Z</time>
      </trkpt>
      <trkpt lat="43.74368" lon="4.47695">
        <ele>37.15</ele>
        <time>2015-01-26T14:00:33Z</time>
      </trkpt>
      <trkpt lat="43.74353" lon="4.47696">
        <ele>36.67</ele>
        <time>2015-01-26T14:00:48Z</time>
      </trkpt>
      <trkpt lat="43.74342" lon="4.47694">
        <ele>35.23</ele>
        <time>2015-01-26T14:01:01Z</time>
      </trkpt>
      <trkpt lat="43.74329" lon="4.47691">
        <ele>35.71</ele>
        <time>2015-01-26T14:01:12Z</time>
      </trkpt>
      <trkpt lat="43.74316" lon="4.47685">
        <ele>35.71</ele>
        <time>2015-01-26T14:01:25Z</time>
      </trkpt>
      <trkpt lat="43.74303" lon="4.47681">
        <ele>34.26</ele>
        <time>2015-01-26T14:01:39Z</time>
      </trkpt>
      <trkpt lat="43.7429" lon="4.47676">
        <ele>32.82</ele>
        <time>2015-01-26T14:01:53Z</time>
      </trkpt>
      <trkpt lat="43.74273" lon="4.47672">
        <ele>33.78</ele>
        <time>2015-01-26T14:02:07Z</time>
      </trkpt>
      <trkpt lat="43.74263" lon="4.47667">
        <ele>33.78</ele>
        <time>2015-01-26T14:02:19Z</time>
      </trkpt>
      <trkpt lat="43.7425" lon="4.47659">
        <ele>31.38</ele>
        <time>2015-01-26T14:02:34Z</time>
      </trkpt>
      <trkpt lat="43.74243" lon="4.47648">
        <ele>30.9</ele>
        <time>2015-01-26T14:02:47Z</time>
      </trkpt>
      <trkpt lat="43.74239" lon="4.47633">
        <ele>31.38</ele>
        <time>2015-01-26T14:02:58Z</time>
      </trkpt>
      <trkpt lat="43.74233" lon="4.47621">
        <ele>31.86</ele>
        <time>2015-01-26T14:03:14Z</time>
      </trkpt>
      <trkpt lat="43.74225" lon="4.47619">
        <ele>29.46</ele>
        <time>2015-01-26T14:03:30Z</time>
      </trkpt>
      <trkpt lat="43.74213" lon="4.47619">
        <ele>26.09</ele>
        <time>2015-01-26T14:03:47Z</time>
      </trkpt>
      <trkpt lat="43.74206" lon="4.47615">
        <ele>31.38</ele>
        <time>2015-01-26T14:04:08Z</time>
      </trkpt>
      <trkpt lat="43.74201" lon="4.47615">
        <ele>36.19</ele>
        <time>2015-01-26T14:04:37Z</time>
      </trkpt>
      <trkpt lat="43.74201" lon="4.47615">
        <ele>37.63</ele>
        <time>2015-01-26T14:04:57Z</time>
      </trkpt>
      <trkpt lat="43.742" lon="4.47614">
        <ele>42.44</ele>
        <time>2015-01-26T14:05:21Z</time>
      </trkpt>
      <trkpt lat="43.74198" lon="4.47611">
        <ele>41.95</ele>
        <time>2015-01-26T14:05:41Z</time>
      </trkpt>
      <trkpt lat="43.74194" lon="4.47613">
        <ele>40.99</ele>
        <time>2015-01-26T14:06:04Z</time>
      </trkpt>
      <trkpt lat="43.74192" lon="4.47618">
        <ele>42.92</ele>
        <time>2015-01-26T14:06:27Z</time>
      </trkpt>
      <trkpt lat="43.74193" lon="4.47619">
        <ele>42.92</ele>
        <time>2015-01-26T14:06:46Z</time>
      </trkpt>
      <trkpt lat="43.74188" lon="4.47616">
        <ele>40.99</ele>
        <time>2015-01-26T14:07:10Z</time>
      </trkpt>
      <trkpt lat="43.7418" lon="4.47627">
        <ele>37.63</ele>
        <time>2015-01-26T14:07:25Z</time>
      </trkpt>
      <trkpt lat="43.7418" lon="4.47628">
        <ele>37.15</ele>
        <time>2015-01-26T14:07:26Z</time>
      </trkpt>
      <trkpt lat="43.74182" lon="4.47645">
        <ele>34.26</ele>
        <time>2015-01-26T14:07:38Z</time>
      </trkpt>
      <trkpt lat="43.74183" lon="4.47655">
        <ele>32.82</ele>
        <time>2015-01-26T14:07:52Z</time>
      </trkpt>
      <trkpt lat="43.74186" lon="4.47667">
        <ele>32.82</ele>
        <time>2015-01-26T14:08:06Z</time>
      </trkpt>
      <trkpt lat="43.74182" lon="4.4768">
        <ele>32.82</ele>
        <time>2015-01-26T14:08:18Z</time>
      </trkpt>
      <trkpt lat="43.74177" lon="4.47689">
        <ele>31.38</ele>
        <time>2015-01-26T14:08:28Z</time>
      </trkpt>
      <trkpt lat="43.74172" lon="4.477">
        <ele>31.86</ele>
        <time>2015-01-26T14:08:42Z</time>
      </trkpt>
      <trkpt lat="43.74171" lon="4.47707">
        <ele>33.78</ele>
        <time>2015-01-26T14:09:04Z</time>
      </trkpt>
      <trkpt lat="43.74178" lon="4.47721">
        <ele>35.23</ele>
        <time>2015-01-26T14:09:16Z</time>
      </trkpt>
      <trkpt lat="43.7418" lon="4.47725">
        <ele>35.71</ele>
        <time>2015-01-26T14:09:20Z</time>
      </trkpt>
      <trkpt lat="43.74182" lon="4.47742">
        <ele>35.71</ele>
        <time>2015-01-26T14:09:34Z</time>
      </trkpt>
      <trkpt lat="43.74186" lon="4.47758">
        <ele>33.78</ele>
        <time>2015-01-26T14:09:46Z</time>
      </trkpt>
      <trkpt lat="43.74191" lon="4.47775">
        <ele>31.86</ele>
        <time>2015-01-26T14:10:00Z</time>
      </trkpt>
      <trkpt lat="43.74194" lon="4.47794">
        <ele>32.34</ele>
        <time>2015-01-26T14:10:14Z</time>
      </trkpt>
      <trkpt lat="43.74197" lon="4.47813">
        <ele>32.82</ele>
        <time>2015-01-26T14:10:28Z</time>
      </trkpt>
      <trkpt lat="43.74193" lon="4.47826">
        <ele>32.34</ele>
        <time>2015-01-26T14:10:38Z</time>
      </trkpt>
      <trkpt lat="43.74184" lon="4.47826">
        <ele>30.9</ele>
        <time>2015-01-26T14:10:51Z</time>
      </trkpt>
      <trkpt lat="43.74179" lon="4.47829">
        <ele>30.9</ele>
        <time>2015-01-26T14:10:57Z</time>
      </trkpt>
      <trkpt lat="43.74164" lon="4.47833">
        <ele>29.94</ele>
        <time>2015-01-26T14:11:11Z</time>
      </trkpt>
      <trkpt lat="43.7415" lon="4.47838">
        <ele>28.5</ele>
        <time>2015-01-26T14:11:24Z</time>
      </trkpt>
      <trkpt lat="43.74146" lon="4.4784">
        <ele>28.02</ele>
        <time>2015-01-26T14:11:28Z</time>
      </trkpt>
      <trkpt lat="43.7414" lon="4.47844">
        <ele>26.09</ele>
        <time>2015-01-26T14:11:43Z</time>
      </trkpt>
      <trkpt lat="43.74137" lon="4.47844">
        <ele>25.13</ele>
        <time>2015-01-26T14:12:02Z</time>
      </trkpt>
      <trkpt lat="43.74123" lon="4.47848">
        <ele>24.65</ele>
        <time>2015-01-26T14:12:17Z</time>
      </trkpt>
      <trkpt lat="43.74108" lon="4.47854">
        <ele>23.21</ele>
        <time>2015-01-26T14:12:32Z</time>
      </trkpt>
      <trkpt lat="43.74093" lon="4.4786">
        <ele>22.73</ele>
        <time>2015-01-26T14:12:47Z</time>
      </trkpt>
      <trkpt lat="43.74075" lon="4.47867">
        <ele>22.73</ele>
        <time>2015-01-26T14:13:03Z</time>
      </trkpt>
      <trkpt lat="43.74056" lon="4.47873">
        <ele>21.77</ele>
        <time>2015-01-26T14:13:20Z</time>
      </trkpt>
      <trkpt lat="43.74042" lon="4.47879">
        <ele>20.81</ele>
        <time>2015-01-26T14:13:35Z</time>
      </trkpt>
      <trkpt lat="43.74031" lon="4.47884">
        <ele>17.92</ele>
        <time>2015-01-26T14:13:49Z</time>
      </trkpt>
      <trkpt lat="43.74016" lon="4.47888">
        <ele>15.04</ele>
        <time>2015-01-26T14:14:06Z</time>
      </trkpt>
      <trkpt lat="43.74013" lon="4.47888">
        <ele>15.04</ele>
        <time>2015-01-26T14:14:10Z</time>
      </trkpt>
      <trkpt lat="43.74004" lon="4.4788">
        <ele>15.04</ele>
        <time>2015-01-26T14:14:19Z</time>
      </trkpt>
      <trkpt lat="43.74002" lon="4.47875">
        <ele>15.52</ele>
        <time>2015-01-26T14:14:23Z</time>
      </trkpt>
      <trkpt lat="43.73999" lon="4.47873">
        <ele>15.04</ele>
        <time>2015-01-26T14:14:26Z</time>
      </trkpt>
      <trkpt lat="43.73985" lon="4.47876">
        <ele>13.12</ele>
        <time>2015-01-26T14:14:41Z</time>
      </trkpt>
      <trkpt lat="43.73971" lon="4.47882">
        <ele>11.67</ele>
        <time>2015-01-26T14:14:55Z</time>
      </trkpt>
      <trkpt lat="43.73961" lon="4.4789">
        <ele>10.71</ele>
        <time>2015-01-26T14:15:09Z</time>
      </trkpt>
      <trkpt lat="43.73961" lon="4.4789">
        <ele>10.23</ele>
        <time>2015-01-26T14:15:28Z</time>
      </trkpt>
      <trkpt lat="43.7396" lon="4.47889">
        <ele>9.75</ele>
        <time>2015-01-26T14:15:47Z</time>
      </trkpt>
      <trkpt lat="43.73958" lon="4.47893">
        <ele>13.6</ele>
        <time>2015-01-26T14:16:13Z</time>
      </trkpt>
      <trkpt lat="43.73957" lon="4.47894">
        <ele>14.08</ele>
        <time>2015-01-26T14:16:36Z</time>
      </trkpt>
      <trkpt lat="43.73948" lon="4.47895">
        <ele>12.15</ele>
        <time>2015-01-26T14:16:51Z</time>
      </trkpt>
      <trkpt lat="43.73937" lon="4.47899">
        <ele>10.23</ele>
        <time>2015-01-26T14:17:05Z</time>
      </trkpt>
      <trkpt lat="43.73923" lon="4.47903">
        <ele>6.87</ele>
        <time>2015-01-26T14:17:20Z</time>
      </trkpt>
      <trkpt lat="43.73907" lon="4.4791">
        <ele>3.98</ele>
        <time>2015-01-26T14:17:36Z</time>
      </trkpt>
      <trkpt lat="43.7389" lon="4.47917">
        <ele>3.5</ele>
        <time>2015-01-26T14:17:50Z</time>
      </trkpt>
      <trkpt lat="43.7388" lon="4.47922">
        <ele>2.54</ele>
        <time>2015-01-26T14:18:00Z</time>
      </trkpt>
      <trkpt lat="43.73864" lon="4.4793">
        <ele>0.62</ele>
        <time>2015-01-26T14:18:16Z</time>
      </trkpt>
      <trkpt lat="43.73848" lon="4.47936">
        <ele>-1.79</ele>
        <time>2015-01-26T14:18:32Z</time>
      </trkpt>
      <trkpt lat="43.73834" lon="4.47939">
        <ele>-2.27</ele>
        <time>2015-01-26T14:18:44Z</time>
      </trkpt>
      <trkpt lat="43.73815" lon="4.47947">
        <ele>-2.27</ele>
        <time>2015-01-26T14:19:00Z</time>
      </trkpt>
      <trkpt lat="43.73799" lon="4.47954">
        <ele>-1.79</ele>
        <time>2015-01-26T14:19:14Z</time>
      </trkpt>
      <trkpt lat="43.73778" lon="4.47963">
        <ele>0.14</ele>
        <time>2015-01-26T14:19:32Z</time>
      </trkpt>
      <trkpt lat="43.73765" lon="4.47967">
        <ele>1.58</ele>
        <time>2015-01-26T14:19:42Z</time>
      </trkpt>
      <trkpt lat="43.73741" lon="4.47976">
        <ele>3.98</ele>
        <time>2015-01-26T14:20:01Z</time>
      </trkpt>
      <trkpt lat="43.73726" lon="4.47981">
        <ele>5.42</ele>
        <time>2015-01-26T14:20:15Z</time>
      </trkpt>
      <trkpt lat="43.73706" lon="4.47987">
        <ele>8.31</ele>
        <time>2015-01-26T14:20:31Z</time>
      </trkpt>
      <trkpt lat="43.73694" lon="4.47992">
        <ele>10.23</ele>
        <time>2015-01-26T14:20:43Z</time>
      </trkpt>
      <trkpt lat="43.73682" lon="4.47996">
        <ele>10.71</ele>
        <time>2015-01-26T14:20:57Z</time>
      </trkpt>
      <trkpt lat="43.73666" lon="4.48003">
        <ele>10.23</ele>
        <time>2015-01-26T14:21:10Z</time>
      </trkpt>
      <trkpt lat="43.73647" lon="4.48011">
        <ele>10.71</ele>
        <time>2015-01-26T14:21:24Z</time>
      </trkpt>
      <trkpt lat="43.73637" lon="4.48016">
        <ele>7.83</ele>
        <time>2015-01-26T14:21:40Z</time>
      </trkpt>
      <trkpt lat="43.73626" lon="4.48019">
        <ele>7.83</ele>
        <time>2015-01-26T14:21:53Z</time>
      </trkpt>
      <trkpt lat="43.73616" lon="4.48025">
        <ele>8.79</ele>
        <time>2015-01-26T14:22:08Z</time>
      </trkpt>
      <trkpt lat="43.73617" lon="4.48028">
        <ele>9.75</ele>
        <time>2015-01-26T14:22:26Z</time>
      </trkpt>
      <trkpt lat="43.73617" lon="4.48031">
        <ele>11.67</ele>
        <time>2015-01-26T14:22:49Z</time>
      </trkpt>
      <trkpt lat="43.73621" lon="4.48029">
        <ele>11.19</ele>
        <time>2015-01-26T14:23:11Z</time>
      </trkpt>
      <trkpt lat="43.73624" lon="4.48023">
        <ele>7.35</ele>
        <time>2015-01-26T14:23:26Z</time>
      </trkpt>
      <trkpt lat="43.73637" lon="4.48019">
        <ele>6.39</ele>
        <time>2015-01-26T14:23:40Z</time>
      </trkpt>
      <trkpt lat="43.73643" lon="4.48018">
        <ele>3.98</ele>
        <time>2015-01-26T14:23:53Z</time>
      </trkpt>
      <trkpt lat="43.7364" lon="4.48019">
        <ele>2.54</ele>
        <time>2015-01-26T14:24:25Z</time>
      </trkpt>
      <trkpt lat="43.73641" lon="4.48015">
        <ele>4.94</ele>
        <time>2015-01-26T14:24:48Z</time>
      </trkpt>
      <trkpt lat="43.73639" lon="4.4801">
        <ele>3.98</ele>
        <time>2015-01-26T14:25:04Z</time>
      </trkpt>
      <trkpt lat="43.73631" lon="4.48017">
        <ele>3.02</ele>
        <time>2015-01-26T14:25:19Z</time>
      </trkpt>
      <trkpt lat="43.73621" lon="4.48027">
        <ele>3.98</ele>
        <time>2015-01-26T14:25:36Z</time>
      </trkpt>
      <trkpt lat="43.73618" lon="4.48034">
        <ele>6.39</ele>
        <time>2015-01-26T14:25:54Z</time>
      </trkpt>
      <trkpt lat="43.73615" lon="4.4803">
        <ele>7.83</ele>
        <time>2015-01-26T14:26:14Z</time>
      </trkpt>
      <trkpt lat="43.73612" lon="4.48028">
        <ele>11.19</ele>
        <time>2015-01-26T14:26:39Z</time>
      </trkpt>
      <trkpt lat="43.73612" lon="4.48038">
        <ele>13.12</ele>
        <time>2015-01-26T14:27:01Z</time>
      </trkpt>
      <trkpt lat="43.7361" lon="4.48034">
        <ele>13.6</ele>
        <time>2015-01-26T14:27:22Z</time>
      </trkpt>
      <trkpt lat="43.73614" lon="4.48032">
        <ele>11.19</ele>
        <time>2015-01-26T14:27:49Z</time>
      </trkpt>
      <trkpt lat="43.73615" lon="4.48031">
        <ele>12.63</ele>
        <time>2015-01-26T14:28:16Z</time>
      </trkpt>
      <trkpt lat="43.73615" lon="4.48038">
        <ele>11.19</ele>
        <time>2015-01-26T14:28:32Z</time>
      </trkpt>
      <trkpt lat="43.73611" lon="4.48045">
        <ele>9.75</ele>
        <time>2015-01-26T14:28:39Z</time>
      </trkpt>
      <trkpt lat="43.73612" lon="4.48067">
        <ele>4.94</ele>
        <time>2015-01-26T14:29:00Z</time>
      </trkpt>
      <trkpt lat="43.73611" lon="4.48073">
        <ele>3.98</ele>
        <time>2015-01-26T14:29:04Z</time>
      </trkpt>
      <trkpt lat="43.73616" lon="4.48095">
        <ele>5.91</ele>
        <time>2015-01-26T14:29:19Z</time>
      </trkpt>
      <trkpt lat="43.73623" lon="4.48116">
        <ele>3.98</ele>
        <time>2015-01-26T14:29:35Z</time>
      </trkpt>
      <trkpt lat="43.73629" lon="4.48138">
        <ele>3.5</ele>
        <time>2015-01-26T14:29:51Z</time>
      </trkpt>
      <trkpt lat="43.73631" lon="4.4815">
        <ele>3.98</ele>
        <time>2015-01-26T14:30:00Z</time>
      </trkpt>
      <trkpt lat="43.73636" lon="4.48176">
        <ele>3.02</ele>
        <time>2015-01-26T14:30:17Z</time>
      </trkpt>
      <trkpt lat="43.7364" lon="4.48196">
        <ele>2.54</ele>
        <time>2015-01-26T14:30:31Z</time>
      </trkpt>
      <trkpt lat="43.73646" lon="4.48218">
        <ele>1.58</ele>
        <time>2015-01-26T14:30:47Z</time>
      </trkpt>
      <trkpt lat="43.73651" lon="4.48242">
        <ele>2.54</ele>
        <time>2015-01-26T14:31:03Z</time>
      </trkpt>
      <trkpt lat="43.73655" lon="4.48262">
        <ele>3.02</ele>
        <time>2015-01-26T14:31:17Z</time>
      </trkpt>
      <trkpt lat="43.73659" lon="4.48284">
        <ele>3.5</ele>
        <time>2015-01-26T14:31:33Z</time>
      </trkpt>
      <trkpt lat="43.73663" lon="4.48307">
        <ele>3.02</ele>
        <time>2015-01-26T14:31:49Z</time>
      </trkpt>
      <trkpt lat="43.73669" lon="4.48332">
        <ele>3.98</ele>
        <time>2015-01-26T14:32:06Z</time>
      </trkpt>
      <trkpt lat="43.73673" lon="4.48357">
        <ele>3.02</ele>
        <time>2015-01-26T14:32:22Z</time>
      </trkpt>
      <trkpt lat="43.73678" lon="4.48377">
        <ele>2.54</ele>
        <time>2015-01-26T14:32:37Z</time>
      </trkpt>
      <trkpt lat="43.73682" lon="4.48391">
        <ele>3.02</ele>
        <time>2015-01-26T14:32:47Z</time>
      </trkpt>
      <trkpt lat="43.73683" lon="4.48393">
        <ele>3.5</ele>
        <time>2015-01-26T14:32:49Z</time>
      </trkpt>
      <trkpt lat="43.73685" lon="4.48405">
        <ele>3.5</ele>
        <time>2015-01-26T14:32:57Z</time>
      </trkpt>
      <trkpt lat="43.73687" lon="4.48416">
        <ele>3.5</ele>
        <time>2015-01-26T14:33:04Z</time>
      </trkpt>
      <trkpt lat="43.73692" lon="4.48443">
        <ele>3.5</ele>
        <time>2015-01-26T14:33:22Z</time>
      </trkpt>
      <trkpt lat="43.73698" lon="4.48468">
        <ele>3.98</ele>
        <time>2015-01-26T14:33:39Z</time>
      </trkpt>
      <trkpt lat="43.73703" lon="4.48491">
        <ele>3.5</ele>
        <time>2015-01-26T14:33:54Z</time>
      </trkpt>
      <trkpt lat="43.73707" lon="4.48513">
        <ele>3.98</ele>
        <time>2015-01-26T14:34:09Z</time>
      </trkpt>
      <trkpt lat="43.73712" lon="4.48538">
        <ele>4.46</ele>
        <time>2015-01-26T14:34:26Z</time>
      </trkpt>
      <trkpt lat="43.73714" lon="4.48557">
        <ele>3.98</ele>
        <time>2015-01-26T14:34:38Z</time>
      </trkpt>
      <trkpt lat="43.7372" lon="4.48582">
        <ele>5.42</ele>
        <time>2015-01-26T14:34:55Z</time>
      </trkpt>
      <trkpt lat="43.73725" lon="4.48607">
        <ele>4.94</ele>
        <time>2015-01-26T14:35:11Z</time>
      </trkpt>
      <trkpt lat="43.73731" lon="4.48632">
        <ele>6.87</ele>
        <time>2015-01-26T14:35:28Z</time>
      </trkpt>
      <trkpt lat="43.73736" lon="4.48657">
        <ele>7.35</ele>
        <time>2015-01-26T14:35:44Z</time>
      </trkpt>
      <trkpt lat="43.73736" lon="4.48662">
        <ele>7.83</ele>
        <time>2015-01-26T14:35:48Z</time>
      </trkpt>
      <trkpt lat="43.73742" lon="4.48685">
        <ele>7.83</ele>
        <time>2015-01-26T14:36:04Z</time>
      </trkpt>
      <trkpt lat="43.73748" lon="4.4871">
        <ele>7.83</ele>
        <time>2015-01-26T14:36:21Z</time>
      </trkpt>
      <trkpt lat="43.73749" lon="4.48713">
        <ele>7.83</ele>
        <time>2015-01-26T14:36:23Z</time>
      </trkpt>
      <trkpt lat="43.7375" lon="4.48718">
        <ele>7.83</ele>
        <time>2015-01-26T14:36:26Z</time>
      </trkpt>
      <trkpt lat="43.73752" lon="4.48745">
        <ele>9.27</ele>
        <time>2015-01-26T14:36:41Z</time>
      </trkpt>
      <trkpt lat="43.73755" lon="4.48772">
        <ele>12.15</ele>
        <time>2015-01-26T14:36:55Z</time>
      </trkpt>
      <trkpt lat="43.7376" lon="4.48796">
        <ele>13.12</ele>
        <time>2015-01-26T14:37:09Z</time>
      </trkpt>
      <trkpt lat="43.73765" lon="4.4882">
        <ele>13.12</ele>
        <time>2015-01-26T14:37:24Z</time>
      </trkpt>
      <trkpt lat="43.73771" lon="4.48848">
        <ele>14.08</ele>
        <time>2015-01-26T14:37:41Z</time>
      </trkpt>
      <trkpt lat="43.73775" lon="4.48866">
        <ele>11.67</ele>
        <time>2015-01-26T14:37:53Z</time>
      </trkpt>
      <trkpt lat="43.73777" lon="4.48871">
        <ele>10.71</ele>
        <time>2015-01-26T14:37:57Z</time>
      </trkpt>
      <trkpt lat="43.73782" lon="4.48893">
        <ele>7.83</ele>
        <time>2015-01-26T14:38:12Z</time>
      </trkpt>
      <trkpt lat="43.73789" lon="4.48918">
        <ele>7.35</ele>
        <time>2015-01-26T14:38:30Z</time>
      </trkpt>
      <trkpt lat="43.73792" lon="4.48939">
        <ele>6.39</ele>
        <time>2015-01-26T14:38:45Z</time>
      </trkpt>
      <trkpt lat="43.73792" lon="4.48946">
        <ele>6.87</ele>
        <time>2015-01-26T14:38:59Z</time>
      </trkpt>
      <trkpt lat="43.73795" lon="4.48955">
        <ele>7.83</ele>
        <time>2015-01-26T14:39:20Z</time>
      </trkpt>
      <trkpt lat="43.738" lon="4.48979">
        <ele>5.91</ele>
        <time>2015-01-26T14:39:36Z</time>
      </trkpt>
      <trkpt lat="43.73806" lon="4.49003">
        <ele>4.46</ele>
        <time>2015-01-26T14:39:53Z</time>
      </trkpt>
      <trkpt lat="43.7381" lon="4.49027">
        <ele>5.42</ele>
        <time>2015-01-26T14:40:09Z</time>
      </trkpt>
      <trkpt lat="43.73815" lon="4.49048">
        <ele>5.42</ele>
        <time>2015-01-26T14:40:23Z</time>
      </trkpt>
      <trkpt lat="43.73821" lon="4.49073">
        <ele>6.39</ele>
        <time>2015-01-26T14:40:39Z</time>
      </trkpt>
      <trkpt lat="43.73826" lon="4.49095">
        <ele>5.91</ele>
        <time>2015-01-26T14:40:55Z</time>
      </trkpt>
      <trkpt lat="43.7383" lon="4.4912">
        <ele>5.42</ele>
        <time>2015-01-26T14:41:10Z</time>
      </trkpt>
      <trkpt lat="43.73835" lon="4.49141">
        <ele>4.46</ele>
        <time>2015-01-26T14:41:25Z</time>
      </trkpt>
      <trkpt lat="43.73838" lon="4.49151">
        <ele>3.5</ele>
        <time>2015-01-26T14:41:32Z</time>
      </trkpt>
      <trkpt lat="43.73839" lon="4.49155">
        <ele>3.02</ele>
        <time>2015-01-26T14:41:35Z</time>
      </trkpt>
      <trkpt lat="43.73844" lon="4.49179">
        <ele>3.5</ele>
        <time>2015-01-26T14:41:50Z</time>
      </trkpt>
      <trkpt lat="43.7385" lon="4.49208">
        <ele>3.5</ele>
        <time>2015-01-26T14:42:08Z</time>
      </trkpt>
      <trkpt lat="43.73856" lon="4.49237">
        <ele>3.98</ele>
        <time>2015-01-26T14:42:26Z</time>
      </trkpt>
      <trkpt lat="43.73862" lon="4.49263">
        <ele>3.5</ele>
        <time>2015-01-26T14:42:43Z</time>
      </trkpt>
      <trkpt lat="43.73867" lon="4.49288">
        <ele>2.54</ele>
        <time>2015-01-26T14:42:59Z</time>
      </trkpt>
      <trkpt lat="43.73872" lon="4.49311">
        <ele>2.06</ele>
        <time>2015-01-26T14:43:15Z</time>
      </trkpt>
      <trkpt lat="43.73875" lon="4.49325">
        <ele>1.58</ele>
        <time>2015-01-26T14:43:24Z</time>
      </trkpt>
      <trkpt lat="43.73878" lon="4.49338">
        <ele>1.58</ele>
        <time>2015-01-26T14:43:32Z</time>
      </trkpt>
      <trkpt lat="43.73884" lon="4.49363">
        <ele>1.58</ele>
        <time>2015-01-26T14:43:47Z</time>
      </trkpt>
      <trkpt lat="43.73886" lon="4.49371">
        <ele>2.06</ele>
        <time>2015-01-26T14:43:53Z</time>
      </trkpt>
      <trkpt lat="43.73891" lon="4.494">
        <ele>3.02</ele>
        <time>2015-01-26T14:44:10Z</time>
      </trkpt>
      <trkpt lat="43.73895" lon="4.49425">
        <ele>4.46</ele>
        <time>2015-01-26T14:44:24Z</time>
      </trkpt>
      <trkpt lat="43.73898" lon="4.49445">
        <ele>4.46</ele>
        <time>2015-01-26T14:44:37Z</time>
      </trkpt>
      <trkpt lat="43.73903" lon="4.4947">
        <ele>5.91</ele>
        <time>2015-01-26T14:44:52Z</time>
      </trkpt>
      <trkpt lat="43.73907" lon="4.49493">
        <ele>7.35</ele>
        <time>2015-01-26T14:45:06Z</time>
      </trkpt>
      <trkpt lat="43.73913" lon="4.49514">
        <ele>6.87</ele>
        <time>2015-01-26T14:45:20Z</time>
      </trkpt>
      <trkpt lat="43.73916" lon="4.49532">
        <ele>7.83</ele>
        <time>2015-01-26T14:45:32Z</time>
      </trkpt>
      <trkpt lat="43.7392" lon="4.49555">
        <ele>10.71</ele>
        <time>2015-01-26T14:45:44Z</time>
      </trkpt>
      <trkpt lat="43.73924" lon="4.49585">
        <ele>18.88</ele>
        <time>2015-01-26T14:45:58Z</time>
      </trkpt>
      <trkpt lat="43.73928" lon="4.49608">
        <ele>16.48</ele>
        <time>2015-01-26T14:46:14Z</time>
      </trkpt>
      <trkpt lat="43.73931" lon="4.49617">
        <ele>16</ele>
        <time>2015-01-26T14:46:20Z</time>
      </trkpt>
      <trkpt lat="43.73936" lon="4.49641">
        <ele>13.12</ele>
        <time>2015-01-26T14:46:36Z</time>
      </trkpt>
      <trkpt lat="43.73941" lon="4.49664">
        <ele>10.71</ele>
        <time>2015-01-26T14:46:51Z</time>
      </trkpt>
      <trkpt lat="43.73946" lon="4.49688">
        <ele>11.67</ele>
        <time>2015-01-26T14:47:05Z</time>
      </trkpt>
      <trkpt lat="43.7395" lon="4.49714">
        <ele>13.12</ele>
        <time>2015-01-26T14:47:20Z</time>
      </trkpt>
      <trkpt lat="43.73954" lon="4.49736">
        <ele>14.56</ele>
        <time>2015-01-26T14:47:33Z</time>
      </trkpt>
      <trkpt lat="43.73958" lon="4.49762">
        <ele>18.4</ele>
        <time>2015-01-26T14:47:48Z</time>
      </trkpt>
      <trkpt lat="43.73963" lon="4.4978">
        <ele>18.4</ele>
        <time>2015-01-26T14:48:01Z</time>
      </trkpt>
      <trkpt lat="43.73964" lon="4.49782">
        <ele>17.92</ele>
        <time>2015-01-26T14:48:03Z</time>
      </trkpt>
      <trkpt lat="43.7397" lon="4.49807">
        <ele>18.4</ele>
        <time>2015-01-26T14:48:19Z</time>
      </trkpt>
      <trkpt lat="43.73974" lon="4.49824">
        <ele>16.96</ele>
        <time>2015-01-26T14:48:30Z</time>
      </trkpt>
      <trkpt lat="43.73979" lon="4.49846">
        <ele>16</ele>
        <time>2015-01-26T14:48:44Z</time>
      </trkpt>
      <trkpt lat="43.73982" lon="4.49861">
        <ele>15.52</ele>
        <time>2015-01-26T14:48:53Z</time>
      </trkpt>
      <trkpt lat="43.73986" lon="4.49882">
        <ele>15.04</ele>
        <time>2015-01-26T14:49:06Z</time>
      </trkpt>
      <trkpt lat="43.73992" lon="4.49902">
        <ele>9.27</ele>
        <time>2015-01-26T14:49:21Z</time>
      </trkpt>
      <trkpt lat="43.73998" lon="4.49923">
        <ele>3.98</ele>
        <time>2015-01-26T14:49:37Z</time>
      </trkpt>
      <trkpt lat="43.74003" lon="4.49944">
        <ele>1.58</ele>
        <time>2015-01-26T14:49:52Z</time>
      </trkpt>
      <trkpt lat="43.74008" lon="4.49964">
        <ele>2.06</ele>
        <time>2015-01-26T14:50:05Z</time>
      </trkpt>
      <trkpt lat="43.74013" lon="4.49991">
        <ele>3.98</ele>
        <time>2015-01-26T14:50:21Z</time>
      </trkpt>
      <trkpt lat="43.74018" lon="4.50012">
        <ele>3.98</ele>
        <time>2015-01-26T14:50:35Z</time>
      </trkpt>
      <trkpt lat="43.74023" lon="4.50037">
        <ele>3.02</ele>
        <time>2015-01-26T14:50:51Z</time>
      </trkpt>
      <trkpt lat="43.74027" lon="4.5006">
        <ele>3.98</ele>
        <time>2015-01-26T14:51:05Z</time>
      </trkpt>
      <trkpt lat="43.74031" lon="4.5008">
        <ele>4.94</ele>
        <time>2015-01-26T14:51:18Z</time>
      </trkpt>
      <trkpt lat="43.74035" lon="4.50103">
        <ele>4.94</ele>
        <time>2015-01-26T14:51:32Z</time>
      </trkpt>
      <trkpt lat="43.74039" lon="4.50123">
        <ele>3.5</ele>
        <time>2015-01-26T14:51:45Z</time>
      </trkpt>
      <trkpt lat="43.74044" lon="4.50143">
        <ele>2.54</ele>
        <time>2015-01-26T14:51:59Z</time>
      </trkpt>
      <trkpt lat="43.74049" lon="4.50163">
        <ele>0.62</ele>
        <time>2015-01-26T14:52:12Z</time>
      </trkpt>
      <trkpt lat="43.74052" lon="4.50185">
        <ele>2.06</ele>
        <time>2015-01-26T14:52:25Z</time>
      </trkpt>
      <trkpt lat="43.74057" lon="4.50206">
        <ele>2.06</ele>
        <time>2015-01-26T14:52:39Z</time>
      </trkpt>
      <trkpt lat="43.74062" lon="4.50226">
        <ele>1.58</ele>
        <time>2015-01-26T14:52:53Z</time>
      </trkpt>
      <trkpt lat="43.74065" lon="4.5024">
        <ele>2.06</ele>
        <time>2015-01-26T14:53:01Z</time>
      </trkpt>
      <trkpt lat="43.7407" lon="4.50264">
        <ele>2.54</ele>
        <time>2015-01-26T14:53:16Z</time>
      </trkpt>
      <trkpt lat="43.74073" lon="4.50276">
        <ele>2.06</ele>
        <time>2015-01-26T14:53:25Z</time>
      </trkpt>
      <trkpt lat="43.74076" lon="4.50286">
        <ele>1.58</ele>
        <time>2015-01-26T14:53:32Z</time>
      </trkpt>
      <trkpt lat="43.74081" lon="4.5031">
        <ele>1.1</ele>
        <time>2015-01-26T14:53:49Z</time>
      </trkpt>
      <trkpt lat="43.74082" lon="4.50319">
        <ele>1.1</ele>
        <time>2015-01-26T14:53:54Z</time>
      </trkpt>
      <trkpt lat="43.74088" lon="4.50341">
        <ele>1.58</ele>
        <time>2015-01-26T14:54:08Z</time>
      </trkpt>
      <trkpt lat="43.74092" lon="4.50363">
        <ele>3.02</ele>
        <time>2015-01-26T14:54:21Z</time>
      </trkpt>
      <trkpt lat="43.74092" lon="4.50365">
        <ele>3.02</ele>
        <time>2015-01-26T14:54:22Z</time>
      </trkpt>
      <trkpt lat="43.74096" lon="4.50383">
        <ele>5.42</ele>
        <time>2015-01-26T14:54:33Z</time>
      </trkpt>
      <trkpt lat="43.74098" lon="4.50393">
        <ele>5.42</ele>
        <time>2015-01-26T14:54:39Z</time>
      </trkpt>
      <trkpt lat="43.74101" lon="4.50415">
        <ele>6.39</ele>
        <time>2015-01-26T14:54:53Z</time>
      </trkpt>
      <trkpt lat="43.74104" lon="4.50435">
        <ele>6.39</ele>
        <time>2015-01-26T14:55:06Z</time>
      </trkpt>
      <trkpt lat="43.74105" lon="4.50442">
        <ele>5.91</ele>
        <time>2015-01-26T14:55:10Z</time>
      </trkpt>
      <trkpt lat="43.74106" lon="4.50447">
        <ele>5.91</ele>
        <time>2015-01-26T14:55:14Z</time>
      </trkpt>
      <trkpt lat="43.74107" lon="4.50453">
        <ele>5.42</ele>
        <time>2015-01-26T14:55:18Z</time>
      </trkpt>
      <trkpt lat="43.74113" lon="4.50477">
        <ele>4.46</ele>
        <time>2015-01-26T14:55:34Z</time>
      </trkpt>
      <trkpt lat="43.74116" lon="4.50494">
        <ele>3.98</ele>
        <time>2015-01-26T14:55:45Z</time>
      </trkpt>
      <trkpt lat="43.74121" lon="4.50508">
        <ele>3.5</ele>
        <time>2015-01-26T14:55:55Z</time>
      </trkpt>
      <trkpt lat="43.74122" lon="4.50513">
        <ele>3.5</ele>
        <time>2015-01-26T14:55:59Z</time>
      </trkpt>
      <trkpt lat="43.74124" lon="4.50517">
        <ele>3.02</ele>
        <time>2015-01-26T14:56:02Z</time>
      </trkpt>
      <trkpt lat="43.74124" lon="4.50522">
        <ele>2.54</ele>
        <time>2015-01-26T14:56:05Z</time>
      </trkpt>
      <trkpt lat="43.74127" lon="4.50536">
        <ele>1.58</ele>
        <time>2015-01-26T14:56:14Z</time>
      </trkpt>
      <trkpt lat="43.74129" lon="4.50539">
        <ele>1.1</ele>
        <time>2015-01-26T14:56:16Z</time>
      </trkpt>
      <trkpt lat="43.74129" lon="4.50545">
        <ele>2.06</ele>
        <time>2015-01-26T14:56:20Z</time>
      </trkpt>
      <trkpt lat="43.74134" lon="4.5057">
        <ele>2.54</ele>
        <time>2015-01-26T14:56:35Z</time>
      </trkpt>
      <trkpt lat="43.74139" lon="4.50594">
        <ele>3.5</ele>
        <time>2015-01-26T14:56:50Z</time>
      </trkpt>
      <trkpt lat="43.74142" lon="4.50617">
        <ele>2.54</ele>
        <time>2015-01-26T14:57:03Z</time>
      </trkpt>
      <trkpt lat="43.74146" lon="4.50638">
        <ele>3.02</ele>
        <time>2015-01-26T14:57:17Z</time>
      </trkpt>
      <trkpt lat="43.74149" lon="4.5065">
        <ele>2.54</ele>
        <time>2015-01-26T14:57:25Z</time>
      </trkpt>
      <trkpt lat="43.74152" lon="4.50668">
        <ele>3.02</ele>
        <time>2015-01-26T14:57:38Z</time>
      </trkpt>
      <trkpt lat="43.74157" lon="4.50691">
        <ele>2.54</ele>
        <time>2015-01-26T14:57:54Z</time>
      </trkpt>
      <trkpt lat="43.74162" lon="4.50714">
        <ele>2.54</ele>
        <time>2015-01-26T14:58:09Z</time>
      </trkpt>
      <trkpt lat="43.74166" lon="4.50739">
        <ele>3.5</ele>
        <time>2015-01-26T14:58:24Z</time>
      </trkpt>
      <trkpt lat="43.74172" lon="4.50765">
        <ele>4.46</ele>
        <time>2015-01-26T14:58:41Z</time>
      </trkpt>
      <trkpt lat="43.74177" lon="4.50789">
        <ele>3.02</ele>
        <time>2015-01-26T14:58:58Z</time>
      </trkpt>
      <trkpt lat="43.74182" lon="4.50814">
        <ele>2.54</ele>
        <time>2015-01-26T14:59:14Z</time>
      </trkpt>
      <trkpt lat="43.74186" lon="4.50829">
        <ele>3.02</ele>
        <time>2015-01-26T14:59:23Z</time>
      </trkpt>
      <trkpt lat="43.7419" lon="4.50849">
        <ele>5.42</ele>
        <time>2015-01-26T14:59:37Z</time>
      </trkpt>
      <trkpt lat="43.74194" lon="4.50873">
        <ele>6.87</ele>
        <time>2015-01-26T14:59:52Z</time>
      </trkpt>
      <trkpt lat="43.742" lon="4.50891">
        <ele>6.39</ele>
        <time>2015-01-26T15:00:05Z</time>
      </trkpt>
      <trkpt lat="43.74205" lon="4.5091">
        <ele>4.94</ele>
        <time>2015-01-26T15:00:18Z</time>
      </trkpt>
      <trkpt lat="43.74207" lon="4.50919">
        <ele>4.46</ele>
        <time>2015-01-26T15:00:24Z</time>
      </trkpt>
      <trkpt lat="43.74209" lon="4.50929">
        <ele>3.98</ele>
        <time>2015-01-26T15:00:30Z</time>
      </trkpt>
      <trkpt lat="43.74213" lon="4.50944">
        <ele>2.06</ele>
        <time>2015-01-26T15:00:41Z</time>
      </trkpt>
      <trkpt lat="43.74217" lon="4.50967">
        <ele>2.54</ele>
        <time>2015-01-26T15:00:55Z</time>
      </trkpt>
      <trkpt lat="43.74221" lon="4.5099">
        <ele>3.98</ele>
        <time>2015-01-26T15:01:10Z</time>
      </trkpt>
      <trkpt lat="43.74227" lon="4.51017">
        <ele>3.98</ele>
        <time>2015-01-26T15:01:28Z</time>
      </trkpt>
      <trkpt lat="43.74232" lon="4.51036">
        <ele>3.98</ele>
        <time>2015-01-26T15:01:41Z</time>
      </trkpt>
      <trkpt lat="43.74237" lon="4.5106">
        <ele>3.02</ele>
        <time>2015-01-26T15:01:57Z</time>
      </trkpt>
      <trkpt lat="43.7424" lon="4.51086">
        <ele>5.42</ele>
        <time>2015-01-26T15:02:11Z</time>
      </trkpt>
      <trkpt lat="43.74244" lon="4.51108">
        <ele>5.91</ele>
        <time>2015-01-26T15:02:25Z</time>
      </trkpt>
      <trkpt lat="43.74249" lon="4.51125">
        <ele>2.54</ele>
        <time>2015-01-26T15:02:39Z</time>
      </trkpt>
      <trkpt lat="43.74254" lon="4.51144">
        <ele>-3.23</ele>
        <time>2015-01-26T15:02:55Z</time>
      </trkpt>
      <trkpt lat="43.74256" lon="4.51149">
        <ele>-4.19</ele>
        <time>2015-01-26T15:02:59Z</time>
      </trkpt>
      <trkpt lat="43.7426" lon="4.51172">
        <ele>-3.71</ele>
        <time>2015-01-26T15:03:14Z</time>
      </trkpt>
      <trkpt lat="43.74262" lon="4.51177">
        <ele>-3.71</ele>
        <time>2015-01-26T15:03:17Z</time>
      </trkpt>
      <trkpt lat="43.74266" lon="4.51203">
        <ele>-3.23</ele>
        <time>2015-01-26T15:03:31Z</time>
      </trkpt>
      <trkpt lat="43.74271" lon="4.51231">
        <ele>-3.23</ele>
        <time>2015-01-26T15:03:47Z</time>
      </trkpt>
      <trkpt lat="43.74276" lon="4.51255">
        <ele>-4.67</ele>
        <time>2015-01-26T15:04:03Z</time>
      </trkpt>
      <trkpt lat="43.7428" lon="4.51278">
        <ele>-2.75</ele>
        <time>2015-01-26T15:04:16Z</time>
      </trkpt>
      <trkpt lat="43.74281" lon="4.51293">
        <ele>-1.3</ele>
        <time>2015-01-26T15:04:29Z</time>
      </trkpt>
      <trkpt lat="43.74281" lon="4.51297">
        <ele>-0.82</ele>
        <time>2015-01-26T15:04:47Z</time>
      </trkpt>
      <trkpt lat="43.7428" lon="4.51299">
        <ele>-1.79</ele>
        <time>2015-01-26T15:04:59Z</time>
      </trkpt>
      <trkpt lat="43.74287" lon="4.51317">
        <ele>-0.34</ele>
        <time>2015-01-26T15:05:13Z</time>
      </trkpt>
      <trkpt lat="43.74291" lon="4.51331">
        <ele>0.14</ele>
        <time>2015-01-26T15:05:23Z</time>
      </trkpt>
      <trkpt lat="43.74292" lon="4.51339">
        <ele>0.14</ele>
        <time>2015-01-26T15:05:28Z</time>
      </trkpt>
      <trkpt lat="43.74293" lon="4.51342">
        <ele>0.14</ele>
        <time>2015-01-26T15:05:30Z</time>
      </trkpt>
      <trkpt lat="43.74294" lon="4.51349">
        <ele>0.14</ele>
        <time>2015-01-26T15:05:34Z</time>
      </trkpt>
      <trkpt lat="43.74298" lon="4.51374">
        <ele>-0.82</ele>
        <time>2015-01-26T15:05:49Z</time>
      </trkpt>
      <trkpt lat="43.74299" lon="4.51377">
        <ele>-0.34</ele>
        <time>2015-01-26T15:05:51Z</time>
      </trkpt>
      <trkpt lat="43.74304" lon="4.51399">
        <ele>-0.82</ele>
        <time>2015-01-26T15:06:05Z</time>
      </trkpt>
      <trkpt lat="43.74308" lon="4.5142">
        <ele>-0.34</ele>
        <time>2015-01-26T15:06:17Z</time>
      </trkpt>
      <trkpt lat="43.74312" lon="4.5144">
        <ele>-0.82</ele>
        <time>2015-01-26T15:06:30Z</time>
      </trkpt>
      <trkpt lat="43.74317" lon="4.51462">
        <ele>1.1</ele>
        <time>2015-01-26T15:06:43Z</time>
      </trkpt>
      <trkpt lat="43.74323" lon="4.51482">
        <ele>1.1</ele>
        <time>2015-01-26T15:06:56Z</time>
      </trkpt>
      <trkpt lat="43.74327" lon="4.51504">
        <ele>3.98</ele>
        <time>2015-01-26T15:07:09Z</time>
      </trkpt>
      <trkpt lat="43.74327" lon="4.51507">
        <ele>3.98</ele>
        <time>2015-01-26T15:07:11Z</time>
      </trkpt>
      <trkpt lat="43.74333" lon="4.5153">
        <ele>3.02</ele>
        <time>2015-01-26T15:07:26Z</time>
      </trkpt>
      <trkpt lat="43.74338" lon="4.51548">
        <ele>0.62</ele>
        <time>2015-01-26T15:07:39Z</time>
      </trkpt>
      <trkpt lat="43.74338" lon="4.51551">
        <ele>0.62</ele>
        <time>2015-01-26T15:07:41Z</time>
      </trkpt>
      <trkpt lat="43.74343" lon="4.51576">
        <ele>0.62</ele>
        <time>2015-01-26T15:07:57Z</time>
      </trkpt>
      <trkpt lat="43.74348" lon="4.51602">
        <ele>1.1</ele>
        <time>2015-01-26T15:08:13Z</time>
      </trkpt>
      <trkpt lat="43.74354" lon="4.51628">
        <ele>2.06</ele>
        <time>2015-01-26T15:08:31Z</time>
      </trkpt>
      <trkpt lat="43.74359" lon="4.51648">
        <ele>2.06</ele>
        <time>2015-01-26T15:08:46Z</time>
      </trkpt>
      <trkpt lat="43.74363" lon="4.51668">
        <ele>2.06</ele>
        <time>2015-01-26T15:09:00Z</time>
      </trkpt>
      <trkpt lat="43.74366" lon="4.5169">
        <ele>2.54</ele>
        <time>2015-01-26T15:09:14Z</time>
      </trkpt>
      <trkpt lat="43.74372" lon="4.51702">
        <ele>2.06</ele>
        <time>2015-01-26T15:09:26Z</time>
      </trkpt>
      <trkpt lat="43.74376" lon="4.51707">
        <ele>0.62</ele>
        <time>2015-01-26T15:09:41Z</time>
      </trkpt>
      <trkpt lat="43.74375" lon="4.51707">
        <ele>3.5</ele>
        <time>2015-01-26T15:10:09Z</time>
      </trkpt>
      <trkpt lat="43.74378" lon="4.51709">
        <ele>3.02</ele>
        <time>2015-01-26T15:10:35Z</time>
      </trkpt>
      <trkpt lat="43.74379" lon="4.5171">
        <ele>4.94</ele>
        <time>2015-01-26T15:11:00Z</time>
      </trkpt>
      <trkpt lat="43.7438" lon="4.51709">
        <ele>5.42</ele>
        <time>2015-01-26T15:11:23Z</time>
      </trkpt>
      <trkpt lat="43.74372" lon="4.51711">
        <ele>3.5</ele>
        <time>2015-01-26T15:11:45Z</time>
      </trkpt>
      <trkpt lat="43.74372" lon="4.51715">
        <ele>4.46</ele>
        <time>2015-01-26T15:12:01Z</time>
      </trkpt>
      <trkpt lat="43.74373" lon="4.51715">
        <ele>6.39</ele>
        <time>2015-01-26T15:12:26Z</time>
      </trkpt>
      <trkpt lat="43.74373" lon="4.51715">
        <ele>4.46</ele>
        <time>2015-01-26T15:12:49Z</time>
      </trkpt>
      <trkpt lat="43.74372" lon="4.5171">
        <ele>3.02</ele>
        <time>2015-01-26T15:13:15Z</time>
      </trkpt>
      <trkpt lat="43.74369" lon="4.51711">
        <ele>7.35</ele>
        <time>2015-01-26T15:13:41Z</time>
      </trkpt>
      <trkpt lat="43.7437" lon="4.51711">
        <ele>5.91</ele>
        <time>2015-01-26T15:14:01Z</time>
      </trkpt>
      <trkpt lat="43.74366" lon="4.51714">
        <ele>5.91</ele>
        <time>2015-01-26T15:14:30Z</time>
      </trkpt>
      <trkpt lat="43.74368" lon="4.51716">
        <ele>6.87</ele>
        <time>2015-01-26T15:14:57Z</time>
      </trkpt>
      <trkpt lat="43.74371" lon="4.51713">
        <ele>3.5</ele>
        <time>2015-01-26T15:15:23Z</time>
      </trkpt>
      <trkpt lat="43.7437" lon="4.51712">
        <ele>5.42</ele>
        <time>2015-01-26T15:15:47Z</time>
      </trkpt>
      <trkpt lat="43.74371" lon="4.51714">
        <ele>4.46</ele>
        <time>2015-01-26T15:16:13Z</time>
      </trkpt>
      <trkpt lat="43.74373" lon="4.51712">
        <ele>3.02</ele>
        <time>2015-01-26T15:16:27Z</time>
      </trkpt>
      <trkpt lat="43.74371" lon="4.51711">
        <ele>2.54</ele>
        <time>2015-01-26T15:16:58Z</time>
      </trkpt>
      <trkpt lat="43.74368" lon="4.51714">
        <ele>2.54</ele>
        <time>2015-01-26T15:17:23Z</time>
      </trkpt>
      <trkpt lat="43.7437" lon="4.51712">
        <ele>1.58</ele>
        <time>2015-01-26T15:17:44Z</time>
      </trkpt>
      <trkpt lat="43.74377" lon="4.51709">
        <ele>1.1</ele>
        <time>2015-01-26T15:18:03Z</time>
      </trkpt>
      <trkpt lat="43.74381" lon="4.51721">
        <ele>0.62</ele>
        <time>2015-01-26T15:18:19Z</time>
      </trkpt>
      <trkpt lat="43.74388" lon="4.51743">
        <ele>0.62</ele>
        <time>2015-01-26T15:18:35Z</time>
      </trkpt>
      <trkpt lat="43.74393" lon="4.51768">
        <ele>-0.82</ele>
        <time>2015-01-26T15:18:52Z</time>
      </trkpt>
      <trkpt lat="43.74397" lon="4.51791">
        <ele>-0.82</ele>
        <time>2015-01-26T15:19:08Z</time>
      </trkpt>
      <trkpt lat="43.74404" lon="4.51821">
        <ele>1.1</ele>
        <time>2015-01-26T15:19:26Z</time>
      </trkpt>
      <trkpt lat="43.74408" lon="4.51846">
        <ele>1.58</ele>
        <time>2015-01-26T15:19:42Z</time>
      </trkpt>
      <trkpt lat="43.74411" lon="4.51867">
        <ele>3.5</ele>
        <time>2015-01-26T15:19:56Z</time>
      </trkpt>
      <trkpt lat="43.74417" lon="4.51893">
        <ele>3.02</ele>
        <time>2015-01-26T15:20:14Z</time>
      </trkpt>
      <trkpt lat="43.74422" lon="4.51922">
        <ele>3.5</ele>
        <time>2015-01-26T15:20:34Z</time>
      </trkpt>
      <trkpt lat="43.74422" lon="4.51924">
        <ele>3.5</ele>
        <time>2015-01-26T15:20:36Z</time>
      </trkpt>
      <trkpt lat="43.74428" lon="4.51945">
        <ele>3.02</ele>
        <time>2015-01-26T15:20:51Z</time>
      </trkpt>
      <trkpt lat="43.74433" lon="4.51965">
        <ele>2.06</ele>
        <time>2015-01-26T15:21:06Z</time>
      </trkpt>
      <trkpt lat="43.74437" lon="4.51989">
        <ele>2.06</ele>
        <time>2015-01-26T15:21:22Z</time>
      </trkpt>
      <trkpt lat="43.7444" lon="4.52016">
        <ele>3.5</ele>
        <time>2015-01-26T15:21:38Z</time>
      </trkpt>
      <trkpt lat="43.74443" lon="4.52034">
        <ele>2.54</ele>
        <time>2015-01-26T15:21:52Z</time>
      </trkpt>
      <trkpt lat="43.74448" lon="4.52056">
        <ele>1.1</ele>
        <time>2015-01-26T15:22:09Z</time>
      </trkpt>
      <trkpt lat="43.74449" lon="4.52065">
        <ele>2.06</ele>
        <time>2015-01-26T15:22:14Z</time>
      </trkpt>
      <trkpt lat="43.74458" lon="4.5209">
        <ele>3.02</ele>
        <time>2015-01-26T15:22:32Z</time>
      </trkpt>
      <trkpt lat="43.74459" lon="4.52093">
        <ele>3.5</ele>
        <time>2015-01-26T15:22:34Z</time>
      </trkpt>
      <trkpt lat="43.74466" lon="4.52116">
        <ele>4.46</ele>
        <time>2015-01-26T15:22:49Z</time>
      </trkpt>
      <trkpt lat="43.74473" lon="4.52127">
        <ele>5.42</ele>
        <time>2015-01-26T15:22:59Z</time>
      </trkpt>
      <trkpt lat="43.74489" lon="4.52121">
        <ele>5.42</ele>
        <time>2015-01-26T15:23:16Z</time>
      </trkpt>
      <trkpt lat="43.74493" lon="4.5212">
        <ele>5.42</ele>
        <time>2015-01-26T15:23:19Z</time>
      </trkpt>
      <trkpt lat="43.74512" lon="4.52109">
        <ele>3.98</ele>
        <time>2015-01-26T15:23:38Z</time>
      </trkpt>
      <trkpt lat="43.74533" lon="4.52095">
        <ele>2.54</ele>
        <time>2015-01-26T15:23:57Z</time>
      </trkpt>
      <trkpt lat="43.74553" lon="4.52084">
        <ele>1.58</ele>
        <time>2015-01-26T15:24:15Z</time>
      </trkpt>
      <trkpt lat="43.74574" lon="4.52071">
        <ele>1.1</ele>
        <time>2015-01-26T15:24:34Z</time>
      </trkpt>
      <trkpt lat="43.7458" lon="4.52061">
        <ele>1.1</ele>
        <time>2015-01-26T15:24:42Z</time>
      </trkpt>
      <trkpt lat="43.74578" lon="4.52052">
        <ele>1.58</ele>
        <time>2015-01-26T15:24:48Z</time>
      </trkpt>
      <trkpt lat="43.7457" lon="4.52041">
        <ele>2.54</ele>
        <time>2015-01-26T15:25:05Z</time>
      </trkpt>
      <trkpt lat="43.74565" lon="4.52035">
        <ele>3.5</ele>
        <time>2015-01-26T15:25:21Z</time>
      </trkpt>
      <trkpt lat="43.74557" lon="4.5202">
        <ele>4.94</ele>
        <time>2015-01-26T15:25:34Z</time>
      </trkpt>
      <trkpt lat="43.74564" lon="4.52002">
        <ele>4.94</ele>
        <time>2015-01-26T15:25:50Z</time>
      </trkpt>
      <trkpt lat="43.74568" lon="4.51998">
        <ele>4.94</ele>
        <time>2015-01-26T15:25:55Z</time>
      </trkpt>
      <trkpt lat="43.74572" lon="4.51995">
        <ele>4.94</ele>
        <time>2015-01-26T15:25:59Z</time>
      </trkpt>
      <trkpt lat="43.74577" lon="4.51988">
        <ele>5.91</ele>
        <time>2015-01-26T15:26:12Z</time>
      </trkpt>
      <trkpt lat="43.74578" lon="4.51978">
        <ele>5.42</ele>
        <time>2015-01-26T15:26:28Z</time>
      </trkpt>
      <trkpt lat="43.74586" lon="4.51974">
        <ele>4.94</ele>
        <time>2015-01-26T15:26:42Z</time>
      </trkpt>
      <trkpt lat="43.74596" lon="4.51963">
        <ele>5.42</ele>
        <time>2015-01-26T15:26:57Z</time>
      </trkpt>
      <trkpt lat="43.74606" lon="4.51951">
        <ele>5.42</ele>
        <time>2015-01-26T15:27:11Z</time>
      </trkpt>
      <trkpt lat="43.7461" lon="4.51948">
        <ele>4.94</ele>
        <time>2015-01-26T15:27:15Z</time>
      </trkpt>
      <trkpt lat="43.74627" lon="4.5194">
        <ele>3.98</ele>
        <time>2015-01-26T15:27:30Z</time>
      </trkpt>
      <trkpt lat="43.74639" lon="4.51935">
        <ele>2.54</ele>
        <time>2015-01-26T15:27:44Z</time>
      </trkpt>
      <trkpt lat="43.74657" lon="4.51938">
        <ele>1.58</ele>
        <time>2015-01-26T15:28:00Z</time>
      </trkpt>
      <trkpt lat="43.74659" lon="4.51939">
        <ele>1.58</ele>
        <time>2015-01-26T15:28:02Z</time>
      </trkpt>
      <trkpt lat="43.74671" lon="4.51947">
        <ele>0.14</ele>
        <time>2015-01-26T15:28:16Z</time>
      </trkpt>
      <trkpt lat="43.74673" lon="4.51954">
        <ele>-0.34</ele>
        <time>2015-01-26T15:28:21Z</time>
      </trkpt>
      <trkpt lat="43.74674" lon="4.51959">
        <ele>-0.34</ele>
        <time>2015-01-26T15:28:24Z</time>
      </trkpt>
      <trkpt lat="43.74679" lon="4.51978">
        <ele>2.06</ele>
        <time>2015-01-26T15:28:36Z</time>
      </trkpt>
      <trkpt lat="43.74688" lon="4.5199">
        <ele>-0.82</ele>
        <time>2015-01-26T15:28:49Z</time>
      </trkpt>
      <trkpt lat="43.74698" lon="4.52002">
        <ele>-2.27</ele>
        <time>2015-01-26T15:29:02Z</time>
      </trkpt>
      <trkpt lat="43.74701" lon="4.5201">
        <ele>-2.75</ele>
        <time>2015-01-26T15:29:08Z</time>
      </trkpt>
      <trkpt lat="43.74701" lon="4.52015">
        <ele>-2.27</ele>
        <time>2015-01-26T15:29:12Z</time>
      </trkpt>
      <trkpt lat="43.74704" lon="4.52017">
        <ele>-2.27</ele>
        <time>2015-01-26T15:29:15Z</time>
      </trkpt>
      <trkpt lat="43.74714" lon="4.52029">
        <ele>-0.82</ele>
        <time>2015-01-26T15:29:26Z</time>
      </trkpt>
      <trkpt lat="43.74718" lon="4.52035">
        <ele>-0.82</ele>
        <time>2015-01-26T15:29:30Z</time>
      </trkpt>
      <trkpt lat="43.74731" lon="4.52047">
        <ele>-0.34</ele>
        <time>2015-01-26T15:29:46Z</time>
      </trkpt>
      <trkpt lat="43.74742" lon="4.52051">
        <ele>-3.71</ele>
        <time>2015-01-26T15:29:57Z</time>
      </trkpt>
      <trkpt lat="43.74757" lon="4.52056">
        <ele>-4.67</ele>
        <time>2015-01-26T15:30:10Z</time>
      </trkpt>
      <trkpt lat="43.74772" lon="4.52062">
        <ele>-3.23</ele>
        <time>2015-01-26T15:30:24Z</time>
      </trkpt>
      <trkpt lat="43.74783" lon="4.52058">
        <ele>-2.27</ele>
        <time>2015-01-26T15:30:36Z</time>
      </trkpt>
      <trkpt lat="43.74798" lon="4.52057">
        <ele>-2.27</ele>
        <time>2015-01-26T15:30:50Z</time>
      </trkpt>
      <trkpt lat="43.74817" lon="4.52055">
        <ele>-2.75</ele>
        <time>2015-01-26T15:31:06Z</time>
      </trkpt>
      <trkpt lat="43.74827" lon="4.5205">
        <ele>-2.75</ele>
        <time>2015-01-26T15:31:18Z</time>
      </trkpt>
      <trkpt lat="43.7484" lon="4.52045">
        <ele>-4.19</ele>
        <time>2015-01-26T15:31:32Z</time>
      </trkpt>
      <trkpt lat="43.74853" lon="4.52041">
        <ele>-4.67</ele>
        <time>2015-01-26T15:31:46Z</time>
      </trkpt>
      <trkpt lat="43.74859" lon="4.5204">
        <ele>-4.67</ele>
        <time>2015-01-26T15:31:51Z</time>
      </trkpt>
      <trkpt lat="43.74869" lon="4.52036">
        <ele>-6.59</ele>
        <time>2015-01-26T15:32:03Z</time>
      </trkpt>
      <trkpt lat="43.74883" lon="4.52032">
        <ele>-5.63</ele>
        <time>2015-01-26T15:32:13Z</time>
      </trkpt>
      <trkpt lat="43.74897" lon="4.52028">
        <ele>-4.19</ele>
        <time>2015-01-26T15:32:24Z</time>
      </trkpt>
      <trkpt lat="43.74911" lon="4.52025">
        <ele>-3.23</ele>
        <time>2015-01-26T15:32:40Z</time>
      </trkpt>
      <trkpt lat="43.74928" lon="4.52019">
        <ele>-3.23</ele>
        <time>2015-01-26T15:32:54Z</time>
      </trkpt>
      <trkpt lat="43.74939" lon="4.52015">
        <ele>-2.75</ele>
        <time>2015-01-26T15:33:06Z</time>
      </trkpt>
      <trkpt lat="43.74953" lon="4.52014">
        <ele>-0.82</ele>
        <time>2015-01-26T15:33:19Z</time>
      </trkpt>
      <trkpt lat="43.74965" lon="4.52008">
        <ele>0.14</ele>
        <time>2015-01-26T15:33:32Z</time>
      </trkpt>
      <trkpt lat="43.74978" lon="4.52005">
        <ele>-0.34</ele>
        <time>2015-01-26T15:33:47Z</time>
      </trkpt>
      <trkpt lat="43.7499" lon="4.52003">
        <ele>-1.79</ele>
        <time>2015-01-26T15:33:59Z</time>
      </trkpt>
      <trkpt lat="43.75003" lon="4.52001">
        <ele>-2.27</ele>
        <time>2015-01-26T15:34:12Z</time>
      </trkpt>
      <trkpt lat="43.7502" lon="4.51998">
        <ele>-0.82</ele>
        <time>2015-01-26T15:34:24Z</time>
      </trkpt>
      <trkpt lat="43.75033" lon="4.51995">
        <ele>-0.82</ele>
        <time>2015-01-26T15:34:36Z</time>
      </trkpt>
      <trkpt lat="43.75043" lon="4.51993">
        <ele>-0.34</ele>
        <time>2015-01-26T15:34:44Z</time>
      </trkpt>
      <trkpt lat="43.75052" lon="4.51991">
        <ele>-0.82</ele>
        <time>2015-01-26T15:34:54Z</time>
      </trkpt>
      <trkpt lat="43.75057" lon="4.51988">
        <ele>-2.27</ele>
        <time>2015-01-26T15:35:03Z</time>
      </trkpt>
      <trkpt lat="43.75073" lon="4.51982">
        <ele>-1.3</ele>
        <time>2015-01-26T15:35:13Z</time>
      </trkpt>
      <trkpt lat="43.75089" lon="4.51973">
        <ele>0.62</ele>
        <time>2015-01-26T15:35:25Z</time>
      </trkpt>
      <trkpt lat="43.75089" lon="4.51969">
        <ele>1.1</ele>
        <time>2015-01-26T15:35:29Z</time>
      </trkpt>
      <trkpt lat="43.75091" lon="4.51949">
        <ele>-1.79</ele>
        <time>2015-01-26T15:35:43Z</time>
      </trkpt>
      <trkpt lat="43.7509" lon="4.51936">
        <ele>-4.19</ele>
        <time>2015-01-26T15:35:54Z</time>
      </trkpt>
      <trkpt lat="43.75093" lon="4.51917">
        <ele>-4.19</ele>
        <time>2015-01-26T15:36:09Z</time>
      </trkpt>
      <trkpt lat="43.75097" lon="4.51917">
        <ele>-5.15</ele>
        <time>2015-01-26T15:36:28Z</time>
      </trkpt>
      <trkpt lat="43.75102" lon="4.51909">
        <ele>-2.27</ele>
        <time>2015-01-26T15:36:48Z</time>
      </trkpt>
      <trkpt lat="43.75102" lon="4.51894">
        <ele>-5.63</ele>
        <time>2015-01-26T15:37:02Z</time>
      </trkpt>
      <trkpt lat="43.75102" lon="4.51884">
        <ele>-9</ele>
        <time>2015-01-26T15:37:13Z</time>
      </trkpt>
      <trkpt lat="43.75101" lon="4.51866">
        <ele>-11.88</ele>
        <time>2015-01-26T15:37:28Z</time>
      </trkpt>
      <trkpt lat="43.75099" lon="4.51848">
        <ele>-14.76</ele>
        <time>2015-01-26T15:37:43Z</time>
      </trkpt>
      <trkpt lat="43.75103" lon="4.51833">
        <ele>-15.24</ele>
        <time>2015-01-26T15:37:55Z</time>
      </trkpt>
      <trkpt lat="43.75109" lon="4.51815">
        <ele>-14.76</ele>
        <time>2015-01-26T15:38:07Z</time>
      </trkpt>
      <trkpt lat="43.75111" lon="4.51805">
        <ele>-12.84</ele>
        <time>2015-01-26T15:38:13Z</time>
      </trkpt>
      <trkpt lat="43.75114" lon="4.51781">
        <ele>-10.92</ele>
        <time>2015-01-26T15:38:27Z</time>
      </trkpt>
      <trkpt lat="43.75116" lon="4.51767">
        <ele>-12.36</ele>
        <time>2015-01-26T15:38:39Z</time>
      </trkpt>
      <trkpt lat="43.75119" lon="4.51752">
        <ele>-16.69</ele>
        <time>2015-01-26T15:38:55Z</time>
      </trkpt>
      <trkpt lat="43.75134" lon="4.5174">
        <ele>-17.17</ele>
        <time>2015-01-26T15:39:09Z</time>
      </trkpt>
      <trkpt lat="43.75145" lon="4.51726">
        <ele>-16.21</ele>
        <time>2015-01-26T15:39:22Z</time>
      </trkpt>
      <trkpt lat="43.75158" lon="4.51719">
        <ele>-16.21</ele>
        <time>2015-01-26T15:39:32Z</time>
      </trkpt>
      <trkpt lat="43.75164" lon="4.51709">
        <ele>-16.69</ele>
        <time>2015-01-26T15:39:45Z</time>
      </trkpt>
      <trkpt lat="43.75182" lon="4.51698">
        <ele>-16.69</ele>
        <time>2015-01-26T15:40:00Z</time>
      </trkpt>
      <trkpt lat="43.75197" lon="4.51684">
        <ele>-14.28</ele>
        <time>2015-01-26T15:40:12Z</time>
      </trkpt>
      <trkpt lat="43.75202" lon="4.5168">
        <ele>-14.76</ele>
        <time>2015-01-26T15:40:19Z</time>
      </trkpt>
      <trkpt lat="43.7522" lon="4.51667">
        <ele>-11.88</ele>
        <time>2015-01-26T15:40:35Z</time>
      </trkpt>
      <trkpt lat="43.75237" lon="4.51659">
        <ele>-11.88</ele>
        <time>2015-01-26T15:40:49Z</time>
      </trkpt>
      <trkpt lat="43.75254" lon="4.51648">
        <ele>-8.03</ele>
        <time>2015-01-26T15:41:02Z</time>
      </trkpt>
      <trkpt lat="43.75268" lon="4.5164">
        <ele>-7.07</ele>
        <time>2015-01-26T15:41:14Z</time>
      </trkpt>
      <trkpt lat="43.75276" lon="4.51623">
        <ele>0.14</ele>
        <time>2015-01-26T15:41:32Z</time>
      </trkpt>
      <trkpt lat="43.75275" lon="4.5161">
        <ele>0.14</ele>
        <time>2015-01-26T15:41:46Z</time>
      </trkpt>
      <trkpt lat="43.75281" lon="4.51603">
        <ele>-2.75</ele>
        <time>2015-01-26T15:42:00Z</time>
      </trkpt>
      <trkpt lat="43.75289" lon="4.51598">
        <ele>-3.23</ele>
        <time>2015-01-26T15:42:13Z</time>
      </trkpt>
      <trkpt lat="43.75298" lon="4.51589">
        <ele>-0.82</ele>
        <time>2015-01-26T15:42:19Z</time>
      </trkpt>
      <trkpt lat="43.75317" lon="4.51577">
        <ele>2.54</ele>
        <time>2015-01-26T15:42:35Z</time>
      </trkpt>
      <trkpt lat="43.75327" lon="4.51565">
        <ele>3.02</ele>
        <time>2015-01-26T15:42:49Z</time>
      </trkpt>
      <trkpt lat="43.75338" lon="4.51557">
        <ele>3.02</ele>
        <time>2015-01-26T15:43:00Z</time>
      </trkpt>
      <trkpt lat="43.75351" lon="4.51546">
        <ele>3.98</ele>
        <time>2015-01-26T15:43:13Z</time>
      </trkpt>
      <trkpt lat="43.75365" lon="4.51535">
        <ele>6.39</ele>
        <time>2015-01-26T15:43:27Z</time>
      </trkpt>
      <trkpt lat="43.75368" lon="4.51523">
        <ele>3.5</ele>
        <time>2015-01-26T15:43:39Z</time>
      </trkpt>
      <trkpt lat="43.75374" lon="4.51513">
        <ele>3.5</ele>
        <time>2015-01-26T15:43:49Z</time>
      </trkpt>
      <trkpt lat="43.7538" lon="4.515">
        <ele>5.42</ele>
        <time>2015-01-26T15:44:01Z</time>
      </trkpt>
      <trkpt lat="43.75392" lon="4.51492">
        <ele>4.46</ele>
        <time>2015-01-26T15:44:09Z</time>
      </trkpt>
      <trkpt lat="43.75402" lon="4.51481">
        <ele>3.02</ele>
        <time>2015-01-26T15:44:21Z</time>
      </trkpt>
      <trkpt lat="43.75412" lon="4.51472">
        <ele>5.91</ele>
        <time>2015-01-26T15:44:31Z</time>
      </trkpt>
      <trkpt lat="43.75418" lon="4.51461">
        <ele>4.94</ele>
        <time>2015-01-26T15:44:43Z</time>
      </trkpt>
      <trkpt lat="43.75425" lon="4.51449">
        <ele>4.94</ele>
        <time>2015-01-26T15:44:54Z</time>
      </trkpt>
      <trkpt lat="43.7543" lon="4.51428">
        <ele>17.92</ele>
        <time>2015-01-26T15:45:06Z</time>
      </trkpt>
      <trkpt lat="43.75426" lon="4.51417">
        <ele>16</ele>
        <time>2015-01-26T15:45:17Z</time>
      </trkpt>
      <trkpt lat="43.75418" lon="4.51401">
        <ele>18.88</ele>
        <time>2015-01-26T15:45:31Z</time>
      </trkpt>
      <trkpt lat="43.75406" lon="4.51376">
        <ele>23.21</ele>
        <time>2015-01-26T15:45:45Z</time>
      </trkpt>
      <trkpt lat="43.75404" lon="4.51374">
        <ele>25.61</ele>
        <time>2015-01-26T15:45:53Z</time>
      </trkpt>
      <trkpt lat="43.754" lon="4.51361">
        <ele>27.05</ele>
        <time>2015-01-26T15:46:05Z</time>
      </trkpt>
      <trkpt lat="43.754" lon="4.51355">
        <ele>27.53</ele>
        <time>2015-01-26T15:46:08Z</time>
      </trkpt>
      <trkpt lat="43.75393" lon="4.51334">
        <ele>29.94</ele>
        <time>2015-01-26T15:46:22Z</time>
      </trkpt>
      <trkpt lat="43.75395" lon="4.51332">
        <ele>29.94</ele>
        <time>2015-01-26T15:46:25Z</time>
      </trkpt>
      <trkpt lat="43.75397" lon="4.51334">
        <ele>29.46</ele>
        <time>2015-01-26T15:46:28Z</time>
      </trkpt>
      <trkpt lat="43.754" lon="4.51315">
        <ele>30.42</ele>
        <time>2015-01-26T15:46:40Z</time>
      </trkpt>
      <trkpt lat="43.75406" lon="4.51312">
        <ele>29.46</ele>
        <time>2015-01-26T15:46:49Z</time>
      </trkpt>
      <trkpt lat="43.75418" lon="4.51307">
        <ele>26.57</ele>
        <time>2015-01-26T15:46:58Z</time>
      </trkpt>
      <trkpt lat="43.75437" lon="4.51297">
        <ele>19.84</ele>
        <time>2015-01-26T15:47:13Z</time>
      </trkpt>
      <trkpt lat="43.7545" lon="4.51293">
        <ele>15.04</ele>
        <time>2015-01-26T15:47:24Z</time>
      </trkpt>
      <trkpt lat="43.75468" lon="4.51286">
        <ele>12.63</ele>
        <time>2015-01-26T15:47:39Z</time>
      </trkpt>
      <trkpt lat="43.75477" lon="4.51282">
        <ele>10.23</ele>
        <time>2015-01-26T15:47:50Z</time>
      </trkpt>
      <trkpt lat="43.7549" lon="4.51273">
        <ele>11.19</ele>
        <time>2015-01-26T15:48:05Z</time>
      </trkpt>
      <trkpt lat="43.75505" lon="4.51268">
        <ele>9.75</ele>
        <time>2015-01-26T15:48:18Z</time>
      </trkpt>
      <trkpt lat="43.75521" lon="4.51265">
        <ele>10.71</ele>
        <time>2015-01-26T15:48:32Z</time>
      </trkpt>
      <trkpt lat="43.75535" lon="4.51258">
        <ele>8.31</ele>
        <time>2015-01-26T15:48:45Z</time>
      </trkpt>
      <trkpt lat="43.75556" lon="4.51243">
        <ele>8.31</ele>
        <time>2015-01-26T15:49:03Z</time>
      </trkpt>
      <trkpt lat="43.75566" lon="4.51239">
        <ele>6.87</ele>
        <time>2015-01-26T15:49:15Z</time>
      </trkpt>
      <trkpt lat="43.7558" lon="4.51231">
        <ele>5.42</ele>
        <time>2015-01-26T15:49:26Z</time>
      </trkpt>
      <trkpt lat="43.75584" lon="4.51229">
        <ele>4.46</ele>
        <time>2015-01-26T15:49:29Z</time>
      </trkpt>
      <trkpt lat="43.75594" lon="4.51228">
        <ele>-1.3</ele>
        <time>2015-01-26T15:49:40Z</time>
      </trkpt>
      <trkpt lat="43.75606" lon="4.5122">
        <ele>-2.75</ele>
        <time>2015-01-26T15:49:50Z</time>
      </trkpt>
      <trkpt lat="43.75616" lon="4.51204">
        <ele>-3.71</ele>
        <time>2015-01-26T15:50:03Z</time>
      </trkpt>
      <trkpt lat="43.75618" lon="4.51178">
        <ele>1.58</ele>
        <time>2015-01-26T15:50:15Z</time>
      </trkpt>
      <trkpt lat="43.7562" lon="4.51176">
        <ele>1.58</ele>
        <time>2015-01-26T15:50:16Z</time>
      </trkpt>
      <trkpt lat="43.75629" lon="4.51164">
        <ele>1.58</ele>
        <time>2015-01-26T15:50:27Z</time>
      </trkpt>
      <trkpt lat="43.75637" lon="4.51151">
        <ele>0.14</ele>
        <time>2015-01-26T15:50:40Z</time>
      </trkpt>
      <trkpt lat="43.75638" lon="4.5114">
        <ele>1.1</ele>
        <time>2015-01-26T15:50:48Z</time>
      </trkpt>
      <trkpt lat="43.75638" lon="4.51135">
        <ele>1.58</ele>
        <time>2015-01-26T15:50:51Z</time>
      </trkpt>
      <trkpt lat="43.75641" lon="4.51127">
        <ele>3.02</ele>
        <time>2015-01-26T15:50:55Z</time>
      </trkpt>
      <trkpt lat="43.75653" lon="4.51105">
        <ele>7.35</ele>
        <time>2015-01-26T15:51:09Z</time>
      </trkpt>
      <trkpt lat="43.7566" lon="4.51089">
        <ele>8.79</ele>
        <time>2015-01-26T15:51:21Z</time>
      </trkpt>
      <trkpt lat="43.75668" lon="4.51071">
        <ele>8.79</ele>
        <time>2015-01-26T15:51:34Z</time>
      </trkpt>
      <trkpt lat="43.75671" lon="4.51065">
        <ele>8.31</ele>
        <time>2015-01-26T15:51:38Z</time>
      </trkpt>
      <trkpt lat="43.75676" lon="4.5104">
        <ele>5.42</ele>
        <time>2015-01-26T15:51:54Z</time>
      </trkpt>
      <trkpt lat="43.75683" lon="4.51017">
        <ele>4.46</ele>
        <time>2015-01-26T15:52:09Z</time>
      </trkpt>
      <trkpt lat="43.75685" lon="4.51009">
        <ele>3.02</ele>
        <time>2015-01-26T15:52:15Z</time>
      </trkpt>
      <trkpt lat="43.75687" lon="4.50983">
        <ele>1.58</ele>
        <time>2015-01-26T15:52:31Z</time>
      </trkpt>
      <trkpt lat="43.75688" lon="4.50962">
        <ele>2.54</ele>
        <time>2015-01-26T15:52:44Z</time>
      </trkpt>
      <trkpt lat="43.75688" lon="4.5096">
        <ele>3.02</ele>
        <time>2015-01-26T15:52:45Z</time>
      </trkpt>
      <trkpt lat="43.75687" lon="4.50938">
        <ele>1.1</ele>
        <time>2015-01-26T15:52:59Z</time>
      </trkpt>
      <trkpt lat="43.75687" lon="4.50933">
        <ele>1.58</ele>
        <time>2015-01-26T15:53:02Z</time>
      </trkpt>
      <trkpt lat="43.75687" lon="4.50921">
        <ele>0.62</ele>
        <time>2015-01-26T15:53:09Z</time>
      </trkpt>
      <trkpt lat="43.75687" lon="4.50913">
        <ele>-0.82</ele>
        <time>2015-01-26T15:53:15Z</time>
      </trkpt>
      <trkpt lat="43.75688" lon="4.50892">
        <ele>-0.34</ele>
        <time>2015-01-26T15:53:27Z</time>
      </trkpt>
      <trkpt lat="43.75688" lon="4.50886">
        <ele>0.14</ele>
        <time>2015-01-26T15:53:30Z</time>
      </trkpt>
      <trkpt lat="43.75689" lon="4.50875">
        <ele>1.58</ele>
        <time>2015-01-26T15:53:37Z</time>
      </trkpt>
      <trkpt lat="43.7569" lon="4.50867">
        <ele>3.02</ele>
        <time>2015-01-26T15:53:43Z</time>
      </trkpt>
      <trkpt lat="43.7569" lon="4.50846">
        <ele>3.98</ele>
        <time>2015-01-26T15:53:56Z</time>
      </trkpt>
      <trkpt lat="43.75692" lon="4.50827">
        <ele>3.98</ele>
        <time>2015-01-26T15:54:08Z</time>
      </trkpt>
      <trkpt lat="43.75695" lon="4.50813">
        <ele>2.06</ele>
        <time>2015-01-26T15:54:18Z</time>
      </trkpt>
      <trkpt lat="43.75704" lon="4.5079">
        <ele>1.58</ele>
        <time>2015-01-26T15:54:34Z</time>
      </trkpt>
      <trkpt lat="43.75718" lon="4.50771">
        <ele>2.54</ele>
        <time>2015-01-26T15:54:49Z</time>
      </trkpt>
      <trkpt lat="43.75737" lon="4.50762">
        <ele>7.83</ele>
        <time>2015-01-26T15:55:03Z</time>
      </trkpt>
      <trkpt lat="43.75735" lon="4.50758">
        <ele>13.12</ele>
        <time>2015-01-26T15:55:20Z</time>
      </trkpt>
      <trkpt lat="43.75738" lon="4.50745">
        <ele>15.52</ele>
        <time>2015-01-26T15:55:31Z</time>
      </trkpt>
      <trkpt lat="43.75739" lon="4.50741">
        <ele>16.48</ele>
        <time>2015-01-26T15:55:34Z</time>
      </trkpt>
      <trkpt lat="43.75741" lon="4.50717">
        <ele>17.44</ele>
        <time>2015-01-26T15:55:50Z</time>
      </trkpt>
      <trkpt lat="43.7574" lon="4.50695">
        <ele>16</ele>
        <time>2015-01-26T15:56:04Z</time>
      </trkpt>
      <trkpt lat="43.75732" lon="4.50665">
        <ele>15.52</ele>
        <time>2015-01-26T15:56:23Z</time>
      </trkpt>
      <trkpt lat="43.75736" lon="4.50641">
        <ele>15.04</ele>
        <time>2015-01-26T15:56:39Z</time>
      </trkpt>
      <trkpt lat="43.75736" lon="4.50627">
        <ele>15.52</ele>
        <time>2015-01-26T15:56:48Z</time>
      </trkpt>
      <trkpt lat="43.75727" lon="4.50605">
        <ele>16</ele>
        <time>2015-01-26T15:57:03Z</time>
      </trkpt>
      <trkpt lat="43.75722" lon="4.50584">
        <ele>15.52</ele>
        <time>2015-01-26T15:57:17Z</time>
      </trkpt>
      <trkpt lat="43.75719" lon="4.50571">
        <ele>15.04</ele>
        <time>2015-01-26T15:57:26Z</time>
      </trkpt>
      <trkpt lat="43.75716" lon="4.5055">
        <ele>15.04</ele>
        <time>2015-01-26T15:57:41Z</time>
      </trkpt>
      <trkpt lat="43.75712" lon="4.50533">
        <ele>13.12</ele>
        <time>2015-01-26T15:57:55Z</time>
      </trkpt>
      <trkpt lat="43.75709" lon="4.50512">
        <ele>13.12</ele>
        <time>2015-01-26T15:58:08Z</time>
      </trkpt>
      <trkpt lat="43.75712" lon="4.505">
        <ele>13.6</ele>
        <time>2015-01-26T15:58:21Z</time>
      </trkpt>
      <trkpt lat="43.75712" lon="4.50499">
        <ele>13.12</ele>
        <time>2015-01-26T15:58:43Z</time>
      </trkpt>
      <trkpt lat="43.7571" lon="4.50497">
        <ele>14.56</ele>
        <time>2015-01-26T15:59:09Z</time>
      </trkpt>
    </trkseg>
  </trk>
</gpx>